<?xml version='1.0' encoding='UTF-8'?><gpx version="1.1" creator="JPX - https://github.com/jenetics/jpx" xmlns="http://www.topografix.com/GPX/1/1"><trk><trkseg><trkpt lat="46.0969107721631" lon="9.342470619399746"><ele>1206.0</ele><time>2026-04-18T09:25:22.001Z</time></trkpt><trkpt lat="46.09696842346438" lon="9.34241906918664"><ele>1206.0</ele><time>2026-04-18T09:25:32Z</time></trkpt><trkpt lat="46.09700612628578" lon="9.342339337350708"><ele>1206.0</ele><time>2026-04-18T09:25:36Z</time></trkpt><trkpt lat="46.09707904038604" lon="9.342335870170803"><ele>1206.0</ele><time>2026-04-18T09:25:43Z</time></trkpt><trkpt lat="46.097149688836446" lon="9.34229011605156"><ele>1206.0</ele><time>2026-04-18T09:25:47Z</time></trkpt><trkpt lat="46.09721228819875" lon="9.342317216421966"><ele>1206.0</ele><time>2026-04-18T09:25:54Z</time></trkpt><trkpt lat="46.09727325660185" lon="9.342345331388586"><ele>1206.0</ele><time>2026-04-18T09:25:59Z</time></trkpt><trkpt lat="46.097348120813365" lon="9.342382162899774"><ele>1206.0</ele><time>2026-04-18T09:26:05Z</time></trkpt><trkpt lat="46.09738663511195" lon="9.342466240990955"><ele>1206.0</ele><time>2026-04-18T09:26:15Z</time></trkpt><trkpt lat="46.09734274338551" lon="9.34254387691612"><ele>1206.0</ele><time>2026-04-18T09:26:19Z</time></trkpt><trkpt lat="46.09736833487608" lon="9.342629760507739"><ele>1206.0</ele><time>2026-04-18T09:26:23Z</time></trkpt><trkpt lat="46.09736182839677" lon="9.342730911501157"><ele>1206.0</ele><time>2026-04-18T09:26:29Z</time></trkpt><trkpt lat="46.09733379294712" lon="9.34282423060119"><ele>1206.0</ele><time>2026-04-18T09:26:35Z</time></trkpt><trkpt lat="46.097342875618956" lon="9.342923197322396"><ele>1206.0</ele><time>2026-04-18T09:26:39.999Z</time></trkpt><trkpt lat="46.09734643215304" lon="9.343018110621646"><ele>1205.4285714285716</ele><time>2026-04-18T09:26:45Z</time></trkpt><trkpt lat="46.097336874891" lon="9.343117081609522"><ele>1204.8571428571427</ele><time>2026-04-18T09:26:51Z</time></trkpt><trkpt lat="46.0973540462403" lon="9.343223249472729"><ele>1204.2857142857142</ele><time>2026-04-18T09:26:58Z</time></trkpt><trkpt lat="46.09735509827656" lon="9.343320489243872"><ele>1203.7142857142858</ele><time>2026-04-18T09:27:04Z</time></trkpt><trkpt lat="46.09737090671111" lon="9.343422226382954"><ele>1203.1428571428573</ele><time>2026-04-18T09:27:10Z</time></trkpt><trkpt lat="46.09737161404187" lon="9.343517108762999"><ele>1202.5714285714284</ele><time>2026-04-18T09:27:18Z</time></trkpt><trkpt lat="46.09741369850977" lon="9.343592773476697"><ele>1202.0</ele><time>2026-04-18T09:27:23Z</time></trkpt><trkpt lat="46.0974636002636" lon="9.34366275844252"><ele>1202.0</ele><time>2026-04-18T09:27:27Z</time></trkpt><trkpt lat="46.097526246083206" lon="9.343606600749986"><ele>1202.0</ele><time>2026-04-18T09:27:41Z</time></trkpt><trkpt lat="46.09759776993082" lon="9.343609066308845"><ele>1202.0</ele><time>2026-04-18T09:27:47Z</time></trkpt><trkpt lat="46.0976241414567" lon="9.34370222908623"><ele>1202.0</ele><time>2026-04-18T09:27:54Z</time></trkpt><trkpt lat="46.09757239348576" lon="9.343787753797402"><ele>1202.0</ele><time>2026-04-18T09:28:00Z</time></trkpt><trkpt lat="46.09751084718117" lon="9.343839485021459"><ele>1202.0</ele><time>2026-04-18T09:28:05.999Z</time></trkpt><trkpt lat="46.09745282661778" lon="9.343884106161358"><ele>1202.0</ele><time>2026-04-18T09:28:14.999Z</time></trkpt><trkpt lat="46.0973872422986" lon="9.343861738924288"><ele>1203.4285714285713</ele><time>2026-04-18T09:28:24.999Z</time></trkpt><trkpt lat="46.097389220282864" lon="9.343963728450374"><ele>1204.857142857143</ele><time>2026-04-18T09:28:30.999Z</time></trkpt><trkpt lat="46.09734866326808" lon="9.34403711256163"><ele>1206.2857142857142</ele><time>2026-04-18T09:28:36.999Z</time></trkpt><trkpt lat="46.09728728633973" lon="9.34407066459229"><ele>1207.7142857142858</ele><time>2026-04-18T09:28:42.999Z</time></trkpt><trkpt lat="46.09723183368133" lon="9.344119473793652"><ele>1209.142857142857</ele><time>2026-04-18T09:28:51Z</time></trkpt><trkpt lat="46.09715637566016" lon="9.344156907999336"><ele>1210.5714285714287</ele><time>2026-04-18T09:29:05Z</time></trkpt><trkpt lat="46.097162163333785" lon="9.344272052731753"><ele>1212.0</ele><time>2026-04-18T09:29:12Z</time></trkpt><trkpt lat="46.097149308745216" lon="9.344365139468252"><ele>1212.0</ele><time>2026-04-18T09:29:18Z</time></trkpt><trkpt lat="46.09711932816751" lon="9.34444616405363"><ele>1212.0</ele><time>2026-04-18T09:29:24Z</time></trkpt><trkpt lat="46.09713764089012" lon="9.344543299771157"><ele>1212.0</ele><time>2026-04-18T09:29:32Z</time></trkpt><trkpt lat="46.09710326981133" lon="9.344626035983392"><ele>1212.0</ele><time>2026-04-18T09:29:43Z</time></trkpt><trkpt lat="46.09708941683866" lon="9.344721507773707"><ele>1212.0</ele><time>2026-04-18T09:29:51Z</time></trkpt><trkpt lat="46.09708179399058" lon="9.34482998048323"><ele>1212.0</ele><time>2026-04-18T09:29:57Z</time></trkpt><trkpt lat="46.097034923244074" lon="9.344905696239092"><ele>1212.0</ele><time>2026-04-18T09:30:01Z</time></trkpt><trkpt lat="46.0969928367452" lon="9.344983841339022"><ele>1214.2857142857142</ele><time>2026-04-18T09:30:17Z</time></trkpt><trkpt lat="46.09697229904874" lon="9.345073021900351"><ele>1216.5714285714284</ele><time>2026-04-18T09:30:22Z</time></trkpt><trkpt lat="46.09694774780686" lon="9.345163208796087"><ele>1218.8571428571427</ele><time>2026-04-18T09:30:28Z</time></trkpt><trkpt lat="46.096926863695074" lon="9.345259670519491"><ele>1221.142857142857</ele><time>2026-04-18T09:30:36Z</time></trkpt><trkpt lat="46.0968911032364" lon="9.345337492471241"><ele>1223.4285714285713</ele><time>2026-04-18T09:30:42Z</time></trkpt><trkpt lat="46.096856460278126" lon="9.345434058016494"><ele>1225.7142857142856</ele><time>2026-04-18T09:30:51Z</time></trkpt><trkpt lat="46.09681512560433" lon="9.345513368043841"><ele>1228.0</ele><time>2026-04-18T09:30:57Z</time></trkpt><trkpt lat="46.09680052053131" lon="9.345614463127276"><ele>1230.4285714285713</ele><time>2026-04-18T09:31:03Z</time></trkpt><trkpt lat="46.096776907870975" lon="9.345702763131744"><ele>1232.857142857143</ele><time>2026-04-18T09:31:08Z</time></trkpt><trkpt lat="46.09676922737124" lon="9.345796450416035"><ele>1235.2857142857142</ele><time>2026-04-18T09:31:16Z</time></trkpt><trkpt lat="46.096786342950594" lon="9.345890293749001"><ele>1237.7142857142858</ele><time>2026-04-18T09:31:22Z</time></trkpt><trkpt lat="46.096816105567115" lon="9.345986286093002"><ele>1240.142857142857</ele><time>2026-04-18T09:31:26Z</time></trkpt><trkpt lat="46.09681220849501" lon="9.34609980021305"><ele>1242.5714285714284</ele><time>2026-04-18T09:31:34Z</time></trkpt><trkpt lat="46.0968652614718" lon="9.34615989869606"><ele>1245.0</ele><time>2026-04-18T09:31:50Z</time></trkpt><trkpt lat="46.096893191995115" lon="9.346244395311539"><ele>1245.0</ele><time>2026-04-18T09:31:59Z</time></trkpt><trkpt lat="46.09691189377306" lon="9.346355888220904"><ele>1245.0</ele><time>2026-04-18T09:32:24Z</time></trkpt><trkpt lat="46.096931584493035" lon="9.34645582092346"><ele>1245.0</ele><time>2026-04-18T09:32:30Z</time></trkpt><trkpt lat="46.0968622757901" lon="9.346520704771098"><ele>1245.0</ele><time>2026-04-18T09:32:55Z</time></trkpt><trkpt lat="46.09682178731934" lon="9.346592531047275"><ele>1245.0</ele><time>2026-04-18T09:33:05Z</time></trkpt><trkpt lat="46.09679639270447" lon="9.346711691618257"><ele>1245.0</ele><time>2026-04-18T09:33:11Z</time></trkpt><trkpt lat="46.09673250150826" lon="9.346683228977097"><ele>1245.0</ele><time>2026-04-18T09:33:53Z</time></trkpt><trkpt lat="46.096707527008036" lon="9.346587270122702"><ele>1245.0</ele><time>2026-04-18T09:34:05Z</time></trkpt><trkpt lat="46.09669066270609" lon="9.346490182725272"><ele>1245.0</ele><time>2026-04-18T09:34:14Z</time></trkpt><trkpt lat="46.09666647177958" lon="9.346395500541705"><ele>1245.0</ele><time>2026-04-18T09:34:23Z</time></trkpt><trkpt lat="46.09660771198005" lon="9.346315161160001"><ele>1245.0</ele><time>2026-04-18T09:34:34Z</time></trkpt><trkpt lat="46.096545516885236" lon="9.346266176169072"><ele>1245.0</ele><time>2026-04-18T09:34:39Z</time></trkpt><trkpt lat="46.0964738321822" lon="9.346253499642714"><ele>1245.0</ele><time>2026-04-18T09:34:45Z</time></trkpt><trkpt lat="46.09642979263543" lon="9.3461749135441"><ele>1247.0</ele><time>2026-04-18T09:34:53Z</time></trkpt><trkpt lat="46.09636348747377" lon="9.346127842975816"><ele>1249.0</ele><time>2026-04-18T09:35:00Z</time></trkpt><trkpt lat="46.09629147329967" lon="9.346100275454061"><ele>1251.0</ele><time>2026-04-18T09:35:07Z</time></trkpt><trkpt lat="46.09622563223671" lon="9.346119073500931"><ele>1253.0</ele><time>2026-04-18T09:35:19Z</time></trkpt><trkpt lat="46.09616735966996" lon="9.346173155997636"><ele>1255.0</ele><time>2026-04-18T09:35:32Z</time></trkpt><trkpt lat="46.0961104276444" lon="9.34622800768253"><ele>1257.0</ele><time>2026-04-18T09:35:43Z</time></trkpt><trkpt lat="46.09604031401961" lon="9.34628210714605"><ele>1259.0</ele><time>2026-04-18T09:36:17Z</time></trkpt><trkpt lat="46.09600824589985" lon="9.346373294068476"><ele>1261.857142857143</ele><time>2026-04-18T09:36:25Z</time></trkpt><trkpt lat="46.09596941461687" lon="9.346469073226237"><ele>1264.7142857142858</ele><time>2026-04-18T09:36:32Z</time></trkpt><trkpt lat="46.095918409009705" lon="9.346534481600244"><ele>1267.5714285714284</ele><time>2026-04-18T09:36:38Z</time></trkpt><trkpt lat="46.09587512250254" lon="9.346608109342833"><ele>1270.4285714285716</ele><time>2026-04-18T09:36:54Z</time></trkpt><trkpt lat="46.09582509512958" lon="9.34667602813733"><ele>1273.2857142857144</ele><time>2026-04-18T09:37:12.001Z</time></trkpt><trkpt lat="46.09576859542264" lon="9.34672859210541"><ele>1276.142857142857</ele><time>2026-04-18T09:37:17.001Z</time></trkpt><trkpt lat="46.095695116117085" lon="9.346820736813752"><ele>1279.0</ele><time>2026-04-18T09:37:22Z</time></trkpt><trkpt lat="46.09563721207176" lon="9.346868982470104"><ele>1279.857142857143</ele><time>2026-04-18T09:37:47Z</time></trkpt><trkpt lat="46.0955696283253" lon="9.346903562945219"><ele>1280.7142857142858</ele><time>2026-04-18T09:37:53Z</time></trkpt><trkpt lat="46.095518585516736" lon="9.34697504882484"><ele>1281.5714285714287</ele><time>2026-04-18T09:38:01Z</time></trkpt><trkpt lat="46.09544922446609" lon="9.346994087601827"><ele>1282.4285714285716</ele><time>2026-04-18T09:38:08Z</time></trkpt><trkpt lat="46.095396670059216" lon="9.347055394635424"><ele>1283.2857142857142</ele><time>2026-04-18T09:38:15Z</time></trkpt><trkpt lat="46.09534325477488" lon="9.34711001047936"><ele>1284.1428571428573</ele><time>2026-04-18T09:38:21Z</time></trkpt><trkpt lat="46.09527918831167" lon="9.347103127215819"><ele>1285.0</ele><time>2026-04-18T09:38:26Z</time></trkpt><trkpt lat="46.095221663926445" lon="9.347145264803451"><ele>1285.0000000000002</ele><time>2026-04-18T09:38:36Z</time></trkpt><trkpt lat="46.09513914207121" lon="9.34714526047615"><ele>1285.0</ele><time>2026-04-18T09:38:48Z</time></trkpt><trkpt lat="46.09512169463534" lon="9.347234487534266"><ele>1285.0</ele><time>2026-04-18T09:38:54Z</time></trkpt><trkpt lat="46.0951330085828" lon="9.347342784706324"><ele>1285.0</ele><time>2026-04-18T09:38:58Z</time></trkpt><trkpt lat="46.09516293270998" lon="9.34743012830412"><ele>1285.0</ele><time>2026-04-18T09:39:06Z</time></trkpt><trkpt lat="46.095201926598634" lon="9.347511057663136"><ele>1285.0000000000002</ele><time>2026-04-18T09:39:15Z</time></trkpt><trkpt lat="46.09521349895625" lon="9.347612154803162"><ele>1285.0</ele><time>2026-04-18T09:39:33Z</time></trkpt><trkpt lat="46.09523087485295" lon="9.347723493355259"><ele>1287.1428571428573</ele><time>2026-04-18T09:39:43Z</time></trkpt><trkpt lat="46.09524522364322" lon="9.347820195808481"><ele>1289.2857142857142</ele><time>2026-04-18T09:39:52Z</time></trkpt><trkpt lat="46.095260452760535" lon="9.34792072180626"><ele>1291.4285714285716</ele><time>2026-04-18T09:40:03Z</time></trkpt><trkpt lat="46.09527443097954" lon="9.348019517884572"><ele>1293.5714285714287</ele><time>2026-04-18T09:40:11Z</time></trkpt><trkpt lat="46.09529124896539" lon="9.348109601453757"><ele>1295.7142857142858</ele><time>2026-04-18T09:40:46Z</time></trkpt><trkpt lat="46.09532358508191" lon="9.348193030065275"><ele>1297.857142857143</ele><time>2026-04-18T09:40:56.999Z</time></trkpt><trkpt lat="46.095336718370206" lon="9.348283802708831"><ele>1300.0</ele><time>2026-04-18T09:41:05.999Z</time></trkpt><trkpt lat="46.09534085245516" lon="9.348385383638643"><ele>1302.5714285714284</ele><time>2026-04-18T09:41:11.999Z</time></trkpt><trkpt lat="46.095362858394424" lon="9.348482001859903"><ele>1305.1428571428573</ele><time>2026-04-18T09:41:20Z</time></trkpt><trkpt lat="46.095398075522056" lon="9.348564928164185"><ele>1307.7142857142858</ele><time>2026-04-18T09:41:27Z</time></trkpt><trkpt lat="46.09542232776265" lon="9.34865435258609"><ele>1310.2857142857142</ele><time>2026-04-18T09:41:34Z</time></trkpt><trkpt lat="46.09542641688354" lon="9.348772742655948"><ele>1312.8571428571427</ele><time>2026-04-18T09:41:44Z</time></trkpt><trkpt lat="46.095436272281084" lon="9.348866444761766"><ele>1315.4285714285716</ele><time>2026-04-18T09:41:51Z</time></trkpt><trkpt lat="46.095466123443344" lon="9.348952929880792"><ele>1318.0</ele><time>2026-04-18T09:41:58Z</time></trkpt><trkpt lat="46.09548241719903" lon="9.349043905634659"><ele>1320.857142857143</ele><time>2026-04-18T09:42:05Z</time></trkpt><trkpt lat="46.09549362542371" lon="9.349140348949"><ele>1323.7142857142856</ele><time>2026-04-18T09:42:11Z</time></trkpt><trkpt lat="46.09550112961877" lon="9.349239327974278"><ele>1326.5714285714284</ele><time>2026-04-18T09:42:19Z</time></trkpt><trkpt lat="46.095501253202286" lon="9.34933484751529"><ele>1329.4285714285716</ele><time>2026-04-18T09:42:25Z</time></trkpt><trkpt lat="46.09554625062056" lon="9.349410458052668"><ele>1332.2857142857142</ele><time>2026-04-18T09:42:31Z</time></trkpt><trkpt lat="46.09552144878085" lon="9.349494194873186"><ele>1335.142857142857</ele><time>2026-04-18T09:42:36Z</time></trkpt><trkpt lat="46.095520826792324" lon="9.349589119867701"><ele>1338.0</ele><time>2026-04-18T09:42:41Z</time></trkpt><trkpt lat="46.095519264491024" lon="9.349680803245265"><ele>1339.142857142857</ele><time>2026-04-18T09:42:46Z</time></trkpt><trkpt lat="46.095535002457915" lon="9.349793383168292"><ele>1340.2857142857142</ele><time>2026-04-18T09:42:52.999Z</time></trkpt><trkpt lat="46.095531559650965" lon="9.349909571614086"><ele>1341.4285714285716</ele><time>2026-04-18T09:43:01.999Z</time></trkpt><trkpt lat="46.09553714149214" lon="9.350007539802311"><ele>1342.5714285714284</ele><time>2026-04-18T09:43:11.999Z</time></trkpt><trkpt lat="46.09552706327883" lon="9.350098862576429"><ele>1343.7142857142856</ele><time>2026-04-18T09:43:18.999Z</time></trkpt><trkpt lat="46.09552587050985" lon="9.350191178739145"><ele>1344.857142857143</ele><time>2026-04-18T09:43:24.999Z</time></trkpt><trkpt lat="46.095524874014274" lon="9.350290723984026"><ele>1346.0</ele><time>2026-04-18T09:43:32Z</time></trkpt><trkpt lat="46.09550730800413" lon="9.350379365579954"><ele>1346.0</ele><time>2026-04-18T09:43:38Z</time></trkpt><trkpt lat="46.09551767034354" lon="9.350489086113745"><ele>1346.0</ele><time>2026-04-18T09:43:46Z</time></trkpt><trkpt lat="46.09549470601423" lon="9.350578368752435"><ele>1346.0</ele><time>2026-04-18T09:43:53Z</time></trkpt><trkpt lat="46.09546261856566" lon="9.350660604873696"><ele>1346.0</ele><time>2026-04-18T09:44:00Z</time></trkpt><trkpt lat="46.0954502879059" lon="9.350751614208447"><ele>1346.0</ele><time>2026-04-18T09:44:06Z</time></trkpt><trkpt lat="46.09543640803232" lon="9.350854221378597"><ele>1346.0</ele><time>2026-04-18T09:44:11Z</time></trkpt><trkpt lat="46.09537768142219" lon="9.350890892142004"><ele>1346.0</ele><time>2026-04-18T09:44:17Z</time></trkpt><trkpt lat="46.095312498704054" lon="9.350941145165416"><ele>1346.2857142857144</ele><time>2026-04-18T09:44:29Z</time></trkpt><trkpt lat="46.09527278764258" lon="9.351033117333406"><ele>1346.5714285714284</ele><time>2026-04-18T09:44:36Z</time></trkpt><trkpt lat="46.09525659466449" lon="9.351138866392425"><ele>1346.857142857143</ele><time>2026-04-18T09:44:40Z</time></trkpt><trkpt lat="46.09522027743818" lon="9.351218947084586"><ele>1347.1428571428573</ele><time>2026-04-18T09:44:56.999Z</time></trkpt><trkpt lat="46.095244239507316" lon="9.351303184088641"><ele>1347.4285714285716</ele><time>2026-04-18T09:45:00.999Z</time></trkpt><trkpt lat="46.09520864741971" lon="9.351390640682222"><ele>1347.7142857142858</ele><time>2026-04-18T09:45:08.999Z</time></trkpt><trkpt lat="46.0952049253739" lon="9.351489264795578"><ele>1348.0</ele><time>2026-04-18T09:45:16.999Z</time></trkpt><trkpt lat="46.09521921223984" lon="9.351583214404252"><ele>1348.7142857142858</ele><time>2026-04-18T09:45:21.999Z</time></trkpt><trkpt lat="46.09520958919435" lon="9.351693388842046"><ele>1349.4285714285716</ele><time>2026-04-18T09:45:27.999Z</time></trkpt><trkpt lat="46.09519204302928" lon="9.351791818451394"><ele>1350.1428571428573</ele><time>2026-04-18T09:45:35Z</time></trkpt><trkpt lat="46.09522398892019" lon="9.351873117956286"><ele>1350.857142857143</ele><time>2026-04-18T09:45:41Z</time></trkpt><trkpt lat="46.09523427476212" lon="9.35196801318735"><ele>1351.5714285714284</ele><time>2026-04-18T09:45:48Z</time></trkpt><trkpt lat="46.09523579196005" lon="9.352083538879414"><ele>1352.2857142857144</ele><time>2026-04-18T09:45:57Z</time></trkpt><trkpt lat="46.09520671953046" lon="9.352196118811872"><ele>1353.0</ele><time>2026-04-18T09:46:05Z</time></trkpt><trkpt lat="46.09519235428193" lon="9.3522914252519"><ele>1355.1666666666667</ele><time>2026-04-18T09:46:09Z</time></trkpt><trkpt lat="46.09525374889114" lon="9.352319907241863"><ele>1357.3333333333333</ele><time>2026-04-18T09:46:13Z</time></trkpt><trkpt lat="46.095240680391115" lon="9.352409121828645"><ele>1359.5</ele><time>2026-04-18T09:47:48Z</time></trkpt><trkpt lat="46.095288591609275" lon="9.35248127952135"><ele>1361.6666666666665</ele><time>2026-04-18T09:47:55Z</time></trkpt><trkpt lat="46.095366669422916" lon="9.352542993084663"><ele>1363.8333333333333</ele><time>2026-04-18T09:48:05Z</time></trkpt><trkpt lat="46.095362024109114" lon="9.352642714406567"><ele>1366.0</ele><time>2026-04-18T09:48:09Z</time></trkpt><trkpt lat="46.09540636737391" lon="9.35276689564341"><ele>1366.0</ele><time>2026-04-18T09:48:19Z</time></trkpt><trkpt lat="46.0954394095676" lon="9.352857827220008"><ele>1366.0</ele><time>2026-04-18T09:48:27Z</time></trkpt><trkpt lat="46.09544112655879" lon="9.352954157079372"><ele>1366.0</ele><time>2026-04-18T09:48:30Z</time></trkpt><trkpt lat="46.09543087376439" lon="9.353065541803238"><ele>1366.0</ele><time>2026-04-18T09:48:43Z</time></trkpt><trkpt lat="46.09540320013934" lon="9.353152990748052"><ele>1366.0</ele><time>2026-04-18T09:48:55.999Z</time></trkpt><trkpt lat="46.09544451940365" lon="9.353225914509332"><ele>1366.0</ele><time>2026-04-18T09:48:59.999Z</time></trkpt><trkpt lat="46.095443330732515" lon="9.353323270996727"><ele>1366.0</ele><time>2026-04-18T09:49:03.999Z</time></trkpt><trkpt lat="46.09554178619427" lon="9.35337258287196"><ele>1368.3333333333333</ele><time>2026-04-18T09:49:20.999Z</time></trkpt><trkpt lat="46.09554713288876" lon="9.35347973435967"><ele>1370.6666666666665</ele><time>2026-04-18T09:49:29.999Z</time></trkpt><trkpt lat="46.09554952396004" lon="9.353587712227544"><ele>1373.0</ele><time>2026-04-18T09:49:39.999Z</time></trkpt><trkpt lat="46.09552965766062" lon="9.353704745009418"><ele>1375.3333333333333</ele><time>2026-04-18T09:49:46Z</time></trkpt><trkpt lat="46.09550594978856" lon="9.35380700186542"><ele>1377.6666666666667</ele><time>2026-04-18T09:49:53Z</time></trkpt><trkpt lat="46.0955304372282" lon="9.353895410746043"><ele>1380.0</ele><time>2026-04-18T09:50:00Z</time></trkpt><trkpt lat="46.09555928244055" lon="9.354000426996075"><ele>1383.142857142857</ele><time>2026-04-18T09:50:09Z</time></trkpt><trkpt lat="46.09560994487515" lon="9.35406035056966"><ele>1386.2857142857142</ele><time>2026-04-18T09:50:17Z</time></trkpt><trkpt lat="46.09560988983698" lon="9.354170824240946"><ele>1389.4285714285716</ele><time>2026-04-18T09:52:02Z</time></trkpt><trkpt lat="46.09563484532624" lon="9.35427241356258"><ele>1392.5714285714284</ele><time>2026-04-18T09:52:33Z</time></trkpt><trkpt lat="46.095682620304224" lon="9.35435575031393"><ele>1395.7142857142856</ele><time>2026-04-18T09:52:39Z</time></trkpt><trkpt lat="46.095730212689" lon="9.354420861752864"><ele>1398.857142857143</ele><time>2026-04-18T09:52:47Z</time></trkpt><trkpt lat="46.09575150193253" lon="9.354516833453355"><ele>1402.0</ele><time>2026-04-18T09:52:50Z</time></trkpt><trkpt lat="46.095786249128665" lon="9.354609994795531"><ele>1395.5714285714287</ele><time>2026-04-18T09:52:55Z</time></trkpt><trkpt lat="46.09579906497206" lon="9.354709829121008"><ele>1389.142857142857</ele><time>2026-04-18T09:53:00Z</time></trkpt><trkpt lat="46.095772736526804" lon="9.354792984913827"><ele>1382.7142857142858</ele><time>2026-04-18T09:53:03Z</time></trkpt><trkpt lat="46.095811976693064" lon="9.354880174374687"><ele>1376.2857142857142</ele><time>2026-04-18T09:53:09.999Z</time></trkpt><trkpt lat="46.0958903975665" lon="9.354903703426633"><ele>1369.857142857143</ele><time>2026-04-18T09:53:17.999Z</time></trkpt><trkpt lat="46.095966291861615" lon="9.354941526359703"><ele>1363.4285714285713</ele><time>2026-04-18T09:53:23.999Z</time></trkpt><trkpt lat="46.096012501955585" lon="9.35500711167894"><ele>1357.0</ele><time>2026-04-18T09:53:28.999Z</time></trkpt><trkpt lat="46.09599078521373" lon="9.35509553095344"><ele>1357.0</ele><time>2026-04-18T09:53:33.999Z</time></trkpt><trkpt lat="46.096033595050564" lon="9.355162163694867"><ele>1357.0</ele><time>2026-04-18T09:53:40.999Z</time></trkpt><trkpt lat="46.096047904323264" lon="9.355276427549965"><ele>1357.0</ele><time>2026-04-18T09:53:50.999Z</time></trkpt><trkpt lat="46.096114391149456" lon="9.355260580808746"><ele>1357.0</ele><time>2026-04-18T09:53:53.999Z</time></trkpt><trkpt lat="46.09609735781332" lon="9.355420948731602"><ele>1357.0</ele><time>2026-04-18T09:54:00Z</time></trkpt><trkpt lat="46.09612722791251" lon="9.355538553414187"><ele>1357.0</ele><time>2026-04-18T09:54:16Z</time></trkpt><trkpt lat="46.09606371722285" lon="9.355596415889853"><ele>1360.857142857143</ele><time>2026-04-18T09:54:20Z</time></trkpt><trkpt lat="46.09601334652853" lon="9.355677354638177"><ele>1364.7142857142858</ele><time>2026-04-18T09:54:25Z</time></trkpt><trkpt lat="46.096032534276944" lon="9.355777668816938"><ele>1368.5714285714284</ele><time>2026-04-18T09:54:32Z</time></trkpt><trkpt lat="46.09608591635705" lon="9.35583070164382"><ele>1372.4285714285716</ele><time>2026-04-18T09:54:36Z</time></trkpt><trkpt lat="46.096148259432965" lon="9.355869428248864"><ele>1376.2857142857144</ele><time>2026-04-18T09:54:43Z</time></trkpt><trkpt lat="46.09618806437433" lon="9.355951402588515"><ele>1380.142857142857</ele><time>2026-04-18T09:54:51Z</time></trkpt><trkpt lat="46.096227870073875" lon="9.356039380666228"><ele>1384.0</ele><time>2026-04-18T09:54:56Z</time></trkpt><trkpt lat="46.09628095897409" lon="9.356095971167836"><ele>1384.0</ele><time>2026-04-18T09:55:06Z</time></trkpt><trkpt lat="46.09633557002374" lon="9.35614463753477"><ele>1384.0</ele><time>2026-04-18T09:55:18Z</time></trkpt><trkpt lat="46.096391109960614" lon="9.356206933277777"><ele>1384.0</ele><time>2026-04-18T09:55:24.999Z</time></trkpt><trkpt lat="46.09643914895305" lon="9.356275355625511"><ele>1384.0</ele><time>2026-04-18T09:55:30.999Z</time></trkpt><trkpt lat="46.09649790927061" lon="9.356332790496927"><ele>1384.0</ele><time>2026-04-18T09:55:37.999Z</time></trkpt><trkpt lat="46.0965640554961" lon="9.35639469687641"><ele>1384.0</ele><time>2026-04-18T09:55:42.999Z</time></trkpt><trkpt lat="46.09661571878156" lon="9.356475136822299"><ele>1384.0</ele><time>2026-04-18T09:55:51.999Z</time></trkpt><trkpt lat="46.09666957623635" lon="9.35653875464112"><ele>1380.3333333333333</ele><time>2026-04-18T09:55:55.999Z</time></trkpt><trkpt lat="46.096724400028606" lon="9.356636979269057"><ele>1376.6666666666665</ele><time>2026-04-18T09:56:04Z</time></trkpt><trkpt lat="46.09674667136843" lon="9.356745051676201"><ele>1373.0</ele><time>2026-04-18T09:56:12Z</time></trkpt><trkpt lat="46.096778536081686" lon="9.356848136155396"><ele>1369.3333333333333</ele><time>2026-04-18T09:56:20Z</time></trkpt><trkpt lat="46.096802623447275" lon="9.356937102317548"><ele>1365.6666666666667</ele><time>2026-04-18T09:56:33Z</time></trkpt><trkpt lat="46.09677733805382" lon="9.357035160755299"><ele>1362.0</ele><time>2026-04-18T09:56:41Z</time></trkpt><trkpt lat="46.09677417122518" lon="9.357134332132453"><ele>1362.0000000000002</ele><time>2026-04-18T09:56:48Z</time></trkpt><trkpt lat="46.09672450417242" lon="9.357201160006904"><ele>1362.0</ele><time>2026-04-18T09:58:58Z</time></trkpt><trkpt lat="46.096767215294435" lon="9.357285387545165"><ele>1362.0</ele><time>2026-04-18T09:59:11Z</time></trkpt><trkpt lat="46.09678150642336" lon="9.357380644789044"><ele>1362.0</ele><time>2026-04-18T09:59:18Z</time></trkpt><trkpt lat="46.09673877508321" lon="9.357463439018783"><ele>1362.0</ele><time>2026-04-18T09:59:22.999Z</time></trkpt><trkpt lat="46.09680400795737" lon="9.357490755334162"><ele>1362.0000000000002</ele><time>2026-04-18T09:59:32.999Z</time></trkpt><trkpt lat="46.09681914931893" lon="9.357589322206511"><ele>1362.0</ele><time>2026-04-18T09:59:39.999Z</time></trkpt><trkpt lat="46.09683533251038" lon="9.357678681042623"><ele>1367.4285714285716</ele><time>2026-04-18T09:59:49.999Z</time></trkpt><trkpt lat="46.096851871993245" lon="9.357771182962269"><ele>1372.857142857143</ele><time>2026-04-18T09:59:53.999Z</time></trkpt><trkpt lat="46.09689582515404" lon="9.357845643780168"><ele>1378.2857142857142</ele><time>2026-04-18T09:59:59.999Z</time></trkpt><trkpt lat="46.096960015957514" lon="9.3578822109382"><ele>1383.7142857142858</ele><time>2026-04-18T10:00:06.999Z</time></trkpt><trkpt lat="46.097014946334866" lon="9.357950380359206"><ele>1389.142857142857</ele><time>2026-04-18T10:00:12.999Z</time></trkpt><trkpt lat="46.09706182202398" lon="9.358020872117532"><ele>1394.5714285714287</ele><time>2026-04-18T10:00:19Z</time></trkpt><trkpt lat="46.097116420181194" lon="9.358074106517153"><ele>1400.0</ele><time>2026-04-18T10:00:26Z</time></trkpt><trkpt lat="46.09714713688791" lon="9.358155462750245"><ele>1404.142857142857</ele><time>2026-04-18T10:00:40Z</time></trkpt><trkpt lat="46.09718897853447" lon="9.358225914508283"><ele>1408.2857142857142</ele><time>2026-04-18T10:00:51Z</time></trkpt><trkpt lat="46.09723027876334" lon="9.358307205896809"><ele>1412.4285714285716</ele><time>2026-04-18T10:00:58Z</time></trkpt><trkpt lat="46.09727253788479" lon="9.35837771052433"><ele>1416.5714285714284</ele><time>2026-04-18T10:01:06Z</time></trkpt><trkpt lat="46.097303134233606" lon="9.358457392623887"><ele>1420.7142857142858</ele><time>2026-04-18T10:01:16Z</time></trkpt><trkpt lat="46.097322693893844" lon="9.358546811534561"><ele>1424.857142857143</ele><time>2026-04-18T10:01:19Z</time></trkpt><trkpt lat="46.097334558215195" lon="9.35864539116562"><ele>1429.0</ele><time>2026-04-18T10:01:27Z</time></trkpt><trkpt lat="46.09735320493706" lon="9.358741486331482"><ele>1429.0</ele><time>2026-04-18T10:01:33.999Z</time></trkpt><trkpt lat="46.09737966338926" lon="9.35885058354927"><ele>1429.0</ele><time>2026-04-18T10:01:37.999Z</time></trkpt><trkpt lat="46.097392670238456" lon="9.358946431709583"><ele>1429.0</ele><time>2026-04-18T10:01:54.999Z</time></trkpt><trkpt lat="46.097396543569026" lon="9.358839180274003"><ele>1429.0</ele><time>2026-04-18T10:02:37Z</time></trkpt><trkpt lat="46.09734365934151" lon="9.358789843402016"><ele>1429.0</ele><time>2026-04-18T10:03:07Z</time></trkpt><trkpt lat="46.09741772352581" lon="9.358842285274655"><ele>1429.0</ele><time>2026-04-18T10:03:29.999Z</time></trkpt><trkpt lat="46.097424507512486" lon="9.358952953028455"><ele>1429.0</ele><time>2026-04-18T10:03:39.999Z</time></trkpt><trkpt lat="46.097420217357154" lon="9.359071647323526"><ele>1429.142857142857</ele><time>2026-04-18T10:03:45.999Z</time></trkpt><trkpt lat="46.09743348776054" lon="9.359174614034577"><ele>1429.2857142857142</ele><time>2026-04-18T10:03:52.999Z</time></trkpt><trkpt lat="46.09745877920324" lon="9.359280643734634"><ele>1429.4285714285716</ele><time>2026-04-18T10:04:01.999Z</time></trkpt><trkpt lat="46.09747686024987" lon="9.359384181843863"><ele>1429.5714285714284</ele><time>2026-04-18T10:04:07.999Z</time></trkpt><trkpt lat="46.09750205438055" lon="9.359470137173794"><ele>1429.7142857142856</ele><time>2026-04-18T10:04:16.999Z</time></trkpt><trkpt lat="46.09750997000824" lon="9.359568721431659"><ele>1429.857142857143</ele><time>2026-04-18T10:04:32.999Z</time></trkpt><trkpt lat="46.09752766866798" lon="9.359664045717318"><ele>1430.0</ele><time>2026-04-18T10:04:39Z</time></trkpt><trkpt lat="46.097542393983375" lon="9.359754314697843"><ele>1430.0</ele><time>2026-04-18T10:04:47Z</time></trkpt><trkpt lat="46.09755914615808" lon="9.359848975280523"><ele>1430.0</ele><time>2026-04-18T10:04:56Z</time></trkpt><trkpt lat="46.09758030696687" lon="9.359941348352795"><ele>1430.0</ele><time>2026-04-18T10:05:04Z</time></trkpt><trkpt lat="46.09761037853292" lon="9.36005084574464"><ele>1430.0</ele><time>2026-04-18T10:05:13Z</time></trkpt><trkpt lat="46.09761743608738" lon="9.360160625844115"><ele>1430.0</ele><time>2026-04-18T10:05:26.999Z</time></trkpt><trkpt lat="46.09762544216049" lon="9.360257410796306"><ele>1430.0</ele><time>2026-04-18T10:05:34.999Z</time></trkpt><trkpt lat="46.09764689476479" lon="9.360353947499508"><ele>1430.0</ele><time>2026-04-18T10:05:40.999Z</time></trkpt><trkpt lat="46.097668818097496" lon="9.360454129098809"><ele>1432.5714285714287</ele><time>2026-04-18T10:05:43.999Z</time></trkpt><trkpt lat="46.09768508474295" lon="9.360544470381527"><ele>1435.142857142857</ele><time>2026-04-18T10:05:55.999Z</time></trkpt><trkpt lat="46.09769821464235" lon="9.360651032828526"><ele>1437.7142857142858</ele><time>2026-04-18T10:06:01.999Z</time></trkpt><trkpt lat="46.09770475041423" lon="9.360753327896838"><ele>1440.2857142857142</ele><time>2026-04-18T10:06:08.999Z</time></trkpt><trkpt lat="46.09769409791457" lon="9.360862147455025"><ele>1442.8571428571427</ele><time>2026-04-18T10:06:16.999Z</time></trkpt><trkpt lat="46.097675672526776" lon="9.360962971690542"><ele>1445.4285714285713</ele><time>2026-04-18T10:06:23.999Z</time></trkpt><trkpt lat="46.09765300895083" lon="9.361057410946692"><ele>1448.0</ele><time>2026-04-18T10:06:27.999Z</time></trkpt><trkpt lat="46.09762782633257" lon="9.36116590821861"><ele>1448.0</ele><time>2026-04-18T10:06:39Z</time></trkpt><trkpt lat="46.097611309997184" lon="9.361257323694867"><ele>1448.0</ele><time>2026-04-18T10:06:48Z</time></trkpt><trkpt lat="46.09759855614821" lon="9.36137386298274"><ele>1448.0</ele><time>2026-04-18T10:06:56Z</time></trkpt><trkpt lat="46.097616953032656" lon="9.361471429151438"><ele>1448.0</ele><time>2026-04-18T10:07:03Z</time></trkpt><trkpt lat="46.09762631969988" lon="9.36156760071613"><ele>1448.0</ele><time>2026-04-18T10:07:12Z</time></trkpt><trkpt lat="46.09762662045946" lon="9.3616767953678"><ele>1448.0</ele><time>2026-04-18T10:07:19Z</time></trkpt><trkpt lat="46.09764233905612" lon="9.361787055252048"><ele>1448.0</ele><time>2026-04-18T10:07:23Z</time></trkpt><trkpt lat="46.09765687844058" lon="9.361913344891711"><ele>1448.7142857142858</ele><time>2026-04-18T10:07:32Z</time></trkpt><trkpt lat="46.09765593141605" lon="9.362023751703957"><ele>1449.4285714285713</ele><time>2026-04-18T10:07:40Z</time></trkpt><trkpt lat="46.097661914988855" lon="9.362114506678802"><ele>1450.1428571428573</ele><time>2026-04-18T10:07:46Z</time></trkpt><trkpt lat="46.09767028695309" lon="9.362230512300231"><ele>1450.857142857143</ele><time>2026-04-18T10:07:53Z</time></trkpt><trkpt lat="46.0976899561489" lon="9.362319859907736"><ele>1451.5714285714287</ele><time>2026-04-18T10:07:57.999Z</time></trkpt><trkpt lat="46.097676858119144" lon="9.362425281635474"><ele>1452.2857142857144</ele><time>2026-04-18T10:08:03.999Z</time></trkpt><trkpt lat="46.09766338778382" lon="9.362536865263635"><ele>1453.0</ele><time>2026-04-18T10:08:11.999Z</time></trkpt><trkpt lat="46.09763649284522" lon="9.36262398254635"><ele>1453.1428571428573</ele><time>2026-04-18T10:08:19.999Z</time></trkpt><trkpt lat="46.09762031767" lon="9.362720069514216"><ele>1453.2857142857142</ele><time>2026-04-18T10:08:24.999Z</time></trkpt><trkpt lat="46.097604633702424" lon="9.362808777952427"><ele>1453.4285714285716</ele><time>2026-04-18T10:08:30.999Z</time></trkpt><trkpt lat="46.09758213975404" lon="9.362911040112461"><ele>1453.5714285714287</ele><time>2026-04-18T10:08:38Z</time></trkpt><trkpt lat="46.09756217202036" lon="9.36300060217997"><ele>1453.7142857142858</ele><time>2026-04-18T10:08:45Z</time></trkpt><trkpt lat="46.097526281548134" lon="9.363076576536388"><ele>1453.857142857143</ele><time>2026-04-18T10:08:49Z</time></trkpt><trkpt lat="46.097507530766876" lon="9.36318203411927"><ele>1454.0</ele><time>2026-04-18T10:08:54Z</time></trkpt><trkpt lat="46.097477022600216" lon="9.363290329235936"><ele>1453.2857142857142</ele><time>2026-04-18T10:09:00Z</time></trkpt><trkpt lat="46.097463246309346" lon="9.363395313819156"><ele>1452.5714285714287</ele><time>2026-04-18T10:09:04Z</time></trkpt><trkpt lat="46.0974348503588" lon="9.363481492336145"><ele>1451.857142857143</ele><time>2026-04-18T10:09:09Z</time></trkpt><trkpt lat="46.09741369810395" lon="9.363575644111537"><ele>1451.142857142857</ele><time>2026-04-18T10:09:14Z</time></trkpt><trkpt lat="46.097388791497316" lon="9.363667411297937"><ele>1450.4285714285716</ele><time>2026-04-18T10:09:19Z</time></trkpt><trkpt lat="46.09737271173233" lon="9.36376352762557"><ele>1449.7142857142858</ele><time>2026-04-18T10:09:24Z</time></trkpt><trkpt lat="46.09733199402465" lon="9.3638610332987"><ele>1449.0</ele><time>2026-04-18T10:09:29Z</time></trkpt><trkpt lat="46.09733384976175" lon="9.36395411951365"><ele>1452.5714285714287</ele><time>2026-04-18T10:09:33Z</time></trkpt><trkpt lat="46.0972986617624" lon="9.364050303374315"><ele>1456.142857142857</ele><time>2026-04-18T10:09:38Z</time></trkpt><trkpt lat="46.097278921557894" lon="9.364146390843034"><ele>1459.7142857142858</ele><time>2026-04-18T10:09:43.999Z</time></trkpt><trkpt lat="46.097258171194866" lon="9.364242409298411"><ele>1463.2857142857142</ele><time>2026-04-18T10:09:48.999Z</time></trkpt><trkpt lat="46.09723858393065" lon="9.364340711860487"><ele>1466.857142857143</ele><time>2026-04-18T10:09:59.999Z</time></trkpt><trkpt lat="46.09722136850656" lon="9.364446051635312"><ele>1470.4285714285716</ele><time>2026-04-18T10:10:05.999Z</time></trkpt><trkpt lat="46.09720219861771" lon="9.364533462704374"><ele>1474.0</ele><time>2026-04-18T10:10:11.999Z</time></trkpt><trkpt lat="46.097165561694325" lon="9.364615897550705"><ele>1472.1428571428573</ele><time>2026-04-18T10:10:18.999Z</time></trkpt><trkpt lat="46.09714427946931" lon="9.364716773606412"><ele>1470.2857142857142</ele><time>2026-04-18T10:10:23.999Z</time></trkpt><trkpt lat="46.09711867171965" lon="9.364808379470443"><ele>1468.4285714285716</ele><time>2026-04-18T10:10:28.999Z</time></trkpt><trkpt lat="46.09710656950805" lon="9.364919266833722"><ele>1466.5714285714287</ele><time>2026-04-18T10:10:35.999Z</time></trkpt><trkpt lat="46.09710311941193" lon="9.365022376520463"><ele>1464.7142857142858</ele><time>2026-04-18T10:10:41.999Z</time></trkpt><trkpt lat="46.09710020176434" lon="9.365113915876242"><ele>1462.857142857143</ele><time>2026-04-18T10:10:49Z</time></trkpt><trkpt lat="46.097075078632535" lon="9.365204487600714"><ele>1461.0</ele><time>2026-04-18T10:11:24Z</time></trkpt><trkpt lat="46.09708403870105" lon="9.365309563000986"><ele>1461.0</ele><time>2026-04-18T10:11:31Z</time></trkpt><trkpt lat="46.09704868572352" lon="9.365388035853965"><ele>1461.0</ele><time>2026-04-18T10:11:40Z</time></trkpt><trkpt lat="46.09699013688999" lon="9.365426540769251"><ele>1461.0</ele><time>2026-04-18T10:11:47Z</time></trkpt><trkpt lat="46.09698191119055" lon="9.365518972584496"><ele>1461.0</ele><time>2026-04-18T10:11:51Z</time></trkpt><trkpt lat="46.096938814891274" lon="9.365591521602807"><ele>1461.0</ele><time>2026-04-18T10:11:56Z</time></trkpt><trkpt lat="46.096893906690234" lon="9.365664643679256"><ele>1461.0</ele><time>2026-04-18T10:12:00Z</time></trkpt><trkpt lat="46.0968293163085" lon="9.365708621673873"><ele>1461.0</ele><time>2026-04-18T10:12:07Z</time></trkpt><trkpt lat="46.09681074201893" lon="9.36580388530238"><ele>1460.5714285714284</ele><time>2026-04-18T10:12:25.999Z</time></trkpt><trkpt lat="46.096768487758226" lon="9.365721659941652"><ele>1460.1428571428573</ele><time>2026-04-18T10:12:29.999Z</time></trkpt><trkpt lat="46.09669792870356" lon="9.365700985081467"><ele>1459.7142857142858</ele><time>2026-04-18T10:12:34.999Z</time></trkpt><trkpt lat="46.0966313824114" lon="9.365672944477515"><ele>1459.2857142857142</ele><time>2026-04-18T10:12:40.999Z</time></trkpt><trkpt lat="46.09657510616211" lon="9.365627293397932"><ele>1458.8571428571427</ele><time>2026-04-18T10:12:46.999Z</time></trkpt><trkpt lat="46.09650634483844" lon="9.365624951391165"><ele>1458.4285714285716</ele><time>2026-04-18T10:12:52.999Z</time></trkpt><trkpt lat="46.09644780916765" lon="9.365584614743891"><ele>1458.0</ele><time>2026-04-18T10:14:05.999Z</time></trkpt><trkpt lat="46.09637808596634" lon="9.365609019384951"><ele>1457.2857142857144</ele><time>2026-04-18T10:14:14.999Z</time></trkpt><trkpt lat="46.09629910375298" lon="9.36560390075013"><ele>1456.5714285714284</ele><time>2026-04-18T10:14:21.999Z</time></trkpt><trkpt lat="46.09623381814526" lon="9.365605184905482"><ele>1455.857142857143</ele><time>2026-04-18T10:14:27.999Z</time></trkpt><trkpt lat="46.096162711293516" lon="9.36558450233163"><ele>1455.1428571428573</ele><time>2026-04-18T10:14:33.999Z</time></trkpt><trkpt lat="46.09609812716734" lon="9.365592482636899"><ele>1454.4285714285716</ele><time>2026-04-18T10:14:54.999Z</time></trkpt><trkpt lat="46.096153185147344" lon="9.36554415053356"><ele>1453.7142857142858</ele><time>2026-04-18T10:14:59.998Z</time></trkpt><trkpt lat="46.0961610315255" lon="9.365440582102622"><ele>1453.0</ele><time>2026-04-18T10:15:05.998Z</time></trkpt><trkpt lat="46.09609742379671" lon="9.365412747367776"><ele>1456.3333333333333</ele><time>2026-04-18T10:15:29.999Z</time></trkpt><trkpt lat="46.096036851405806" lon="9.365343393968656"><ele>1459.6666666666665</ele><time>2026-04-18T10:15:34.999Z</time></trkpt><trkpt lat="46.09597315679394" lon="9.36528988566881"><ele>1463.0</ele><time>2026-04-18T10:15:41.999Z</time></trkpt><trkpt lat="46.09588095366602" lon="9.365258486123636"><ele>1466.3333333333333</ele><time>2026-04-18T10:15:47.999Z</time></trkpt><trkpt lat="46.095901825569186" lon="9.365160866712776"><ele>1469.6666666666667</ele><time>2026-04-18T10:16:04.999Z</time></trkpt><trkpt lat="46.0958461858686" lon="9.365206681176966"><ele>1473.0</ele><time>2026-04-18T10:16:10.999Z</time></trkpt><trkpt lat="46.09577664297734" lon="9.365173642756192"><ele>1474.142857142857</ele><time>2026-04-18T10:16:20.999Z</time></trkpt><trkpt lat="46.09573915784847" lon="9.365068903087241"><ele>1475.2857142857142</ele><time>2026-04-18T10:16:34.999Z</time></trkpt><trkpt lat="46.09572235462516" lon="9.364980581646709"><ele>1476.4285714285716</ele><time>2026-04-18T10:16:40.999Z</time></trkpt><trkpt lat="46.09571727345187" lon="9.364883482650225"><ele>1477.5714285714284</ele><time>2026-04-18T10:16:51.999Z</time></trkpt><trkpt lat="46.095725892105385" lon="9.364784236957643"><ele>1478.7142857142858</ele><time>2026-04-18T10:16:59.999Z</time></trkpt><trkpt lat="46.09569045247676" lon="9.364699018796724"><ele>1479.857142857143</ele><time>2026-04-18T10:17:06.999Z</time></trkpt><trkpt lat="46.095738482694955" lon="9.364634709853384"><ele>1481.0</ele><time>2026-04-18T10:17:18.999Z</time></trkpt><trkpt lat="46.09576845662321" lon="9.364530993436626"><ele>1482.0000000000002</ele><time>2026-04-18T10:17:24.999Z</time></trkpt><trkpt lat="46.09575932484116" lon="9.364437023789938"><ele>1483.0</ele><time>2026-04-18T10:17:37Z</time></trkpt><trkpt lat="46.09579459935632" lon="9.36433778361441"><ele>1484.0</ele><time>2026-04-18T10:17:49Z</time></trkpt><trkpt lat="46.09582493004451" lon="9.364219576879526"><ele>1485.0</ele><time>2026-04-18T10:18:00Z</time></trkpt><trkpt lat="46.09581133240311" lon="9.364128738083588"><ele>1486.0</ele><time>2026-04-18T10:18:09Z</time></trkpt><trkpt lat="46.09581755196592" lon="9.364034928916807"><ele>1487.0000000000002</ele><time>2026-04-18T10:18:15Z</time></trkpt><trkpt lat="46.09576943283586" lon="9.36392951094668"><ele>1488.0</ele><time>2026-04-18T10:18:26Z</time></trkpt><trkpt lat="46.09568512911831" lon="9.363839097246135"><ele>1488.5714285714287</ele><time>2026-04-18T10:18:33Z</time></trkpt><trkpt lat="46.095629443820826" lon="9.363782441022202"><ele>1489.142857142857</ele><time>2026-04-18T10:18:40Z</time></trkpt><trkpt lat="46.09558031345278" lon="9.36369194046455"><ele>1489.7142857142858</ele><time>2026-04-18T10:18:43Z</time></trkpt><trkpt lat="46.09552121122071" lon="9.363639683677626"><ele>1490.2857142857142</ele><time>2026-04-18T10:18:53Z</time></trkpt><trkpt lat="46.095461678476184" lon="9.363588399877175"><ele>1490.857142857143</ele><time>2026-04-18T10:18:59Z</time></trkpt><trkpt lat="46.09547487232477" lon="9.363491768802474"><ele>1491.4285714285716</ele><time>2026-04-18T10:19:17.001Z</time></trkpt><trkpt lat="46.09545475145557" lon="9.363395944089977"><ele>1492.0</ele><time>2026-04-18T10:19:27Z</time></trkpt><trkpt lat="46.09546018342299" lon="9.363303245622312"><ele>1492.0</ele><time>2026-04-18T10:19:36Z</time></trkpt><trkpt lat="46.09546360222421" lon="9.363204738676092"><ele>1492.0</ele><time>2026-04-18T10:19:44Z</time></trkpt><trkpt lat="46.09545176733623" lon="9.363083062031405"><ele>1492.0</ele><time>2026-04-18T10:19:50Z</time></trkpt><trkpt lat="46.09545564851737" lon="9.36297311158925"><ele>1492.0</ele><time>2026-04-18T10:19:59Z</time></trkpt><trkpt lat="46.09546746299167" lon="9.362864307323806"><ele>1492.0</ele><time>2026-04-18T10:20:06Z</time></trkpt><trkpt lat="46.09547926111325" lon="9.362772232925327"><ele>1492.0</ele><time>2026-04-18T10:20:14Z</time></trkpt><trkpt lat="46.09547818718651" lon="9.362664931237102"><ele>1492.0</ele><time>2026-04-18T10:20:24Z</time></trkpt><trkpt lat="46.095486316334046" lon="9.362560573127569"><ele>1494.4285714285716</ele><time>2026-04-18T10:20:33Z</time></trkpt><trkpt lat="46.09545960145197" lon="9.36246528595157"><ele>1496.857142857143</ele><time>2026-04-18T10:20:44Z</time></trkpt><trkpt lat="46.09547988794326" lon="9.362366158016803"><ele>1499.2857142857142</ele><time>2026-04-18T10:20:53Z</time></trkpt><trkpt lat="46.09542990799759" lon="9.362295484191595"><ele>1501.7142857142858</ele><time>2026-04-18T10:20:58Z</time></trkpt><trkpt lat="46.09544683525171" lon="9.362205598153162"><ele>1504.142857142857</ele><time>2026-04-18T10:21:12Z</time></trkpt><trkpt lat="46.09551395076797" lon="9.362161045965216"><ele>1506.5714285714287</ele><time>2026-04-18T10:21:53Z</time></trkpt><trkpt lat="46.09550805180316" lon="9.3620336169398"><ele>1509.0</ele><time>2026-04-18T10:22:00Z</time></trkpt><trkpt lat="46.095556236282846" lon="9.361965984157218"><ele>1514.5</ele><time>2026-04-18T10:22:05Z</time></trkpt><trkpt lat="46.09554619983195" lon="9.361873616086822"><ele>1520.0</ele><time>2026-04-18T10:22:10Z</time></trkpt><trkpt lat="46.09557976232519" lon="9.361787273674326"><ele>1525.5</ele><time>2026-04-18T10:22:34Z</time></trkpt><trkpt lat="46.095516563917236" lon="9.361700242302152"><ele>1531.0</ele><time>2026-04-18T10:22:54Z</time></trkpt><trkpt lat="46.095516928924575" lon="9.361883063790497"><ele>1536.5</ele><time>2026-04-18T10:23:08Z</time></trkpt><trkpt lat="46.09549818414326" lon="9.36177648235386"><ele>1542.0</ele><time>2026-04-18T10:23:13Z</time></trkpt><trkpt lat="46.09544604903898" lon="9.361723376198887"><ele>1542.0</ele><time>2026-04-18T10:24:06Z</time></trkpt><trkpt lat="46.09536477855547" lon="9.361702411246657"><ele>1542.0</ele><time>2026-04-18T10:24:09Z</time></trkpt><trkpt lat="46.095329339869885" lon="9.36159003307555"><ele>1542.0</ele><time>2026-04-18T10:24:40Z</time></trkpt><trkpt lat="46.09529050799407" lon="9.361672899019307"><ele>1542.0</ele><time>2026-04-18T10:24:50Z</time></trkpt><trkpt lat="46.09526395820434" lon="9.361576615757384"><ele>1542.0</ele><time>2026-04-18T10:25:08Z</time></trkpt><trkpt lat="46.09519283789503" lon="9.361593756176882"><ele>1542.0</ele><time>2026-04-18T10:26:04Z</time></trkpt><trkpt lat="46.09513704704754" lon="9.361518825983463"><ele>1542.0</ele><time>2026-04-18T10:26:15Z</time></trkpt><trkpt lat="46.0950667141438" lon="9.361529089286982"><ele>1542.0</ele><time>2026-04-18T10:26:33Z</time></trkpt><trkpt lat="46.09512969046119" lon="9.361492434944381"><ele>1542.0</ele><time>2026-04-18T10:26:55Z</time></trkpt><trkpt lat="46.09512982187762" lon="9.361401115282947"><ele>1542.0</ele><time>2026-04-18T10:27:13Z</time></trkpt><trkpt lat="46.09519838707332" lon="9.36134127866281"><ele>1542.0</ele><time>2026-04-18T10:27:30Z</time></trkpt><trkpt lat="46.09523177241245" lon="9.36125856683264"><ele>1542.0</ele><time>2026-04-18T10:27:35Z</time></trkpt><trkpt lat="46.09519922802779" lon="9.361165089834419"><ele>1542.0</ele><time>2026-04-18T10:27:47Z</time></trkpt><trkpt lat="46.09525475867009" lon="9.361118249569346"><ele>1546.4285714285716</ele><time>2026-04-18T10:27:58Z</time></trkpt><trkpt lat="46.09525537402422" lon="9.361026614598032"><ele>1550.8571428571427</ele><time>2026-04-18T10:28:05Z</time></trkpt><trkpt lat="46.09519804928018" lon="9.36096625710708"><ele>1555.2857142857142</ele><time>2026-04-18T10:28:18Z</time></trkpt><trkpt lat="46.09521577153753" lon="9.360863477909383"><ele>1559.7142857142858</ele><time>2026-04-18T10:28:39Z</time></trkpt><trkpt lat="46.09519460412792" lon="9.360757037131222"><ele>1564.1428571428573</ele><time>2026-04-18T10:28:55Z</time></trkpt><trkpt lat="46.095136761194304" lon="9.360703922534798"><ele>1568.5714285714284</ele><time>2026-04-18T10:29:08.999Z</time></trkpt><trkpt lat="46.09511270524495" lon="9.360617882067983"><ele>1573.0</ele><time>2026-04-18T10:29:47Z</time></trkpt><trkpt lat="46.095063991727855" lon="9.360525630196028"><ele>1574.7142857142856</ele><time>2026-04-18T10:30:10Z</time></trkpt><trkpt lat="46.09501578662549" lon="9.36046198981629"><ele>1576.4285714285716</ele><time>2026-04-18T10:30:23Z</time></trkpt><trkpt lat="46.09497837234242" lon="9.360381676627332"><ele>1578.142857142857</ele><time>2026-04-18T10:30:38Z</time></trkpt><trkpt lat="46.094915632503294" lon="9.360398488263877"><ele>1579.8571428571427</ele><time>2026-04-18T10:31:00Z</time></trkpt><trkpt lat="46.094851208166595" lon="9.360411663603648"><ele>1581.5714285714284</ele><time>2026-04-18T10:31:17Z</time></trkpt><trkpt lat="46.09478742991265" lon="9.360467112509118"><ele>1583.2857142857142</ele><time>2026-04-18T10:31:29.999Z</time></trkpt><trkpt lat="46.094721312024916" lon="9.360466049103715"><ele>1585.0</ele><time>2026-04-18T10:31:41.999Z</time></trkpt><trkpt lat="46.09466366913152" lon="9.360383895133822"><ele>1588.5714285714284</ele><time>2026-04-18T10:33:02Z</time></trkpt><trkpt lat="46.094620979796844" lon="9.360316670404288"><ele>1592.142857142857</ele><time>2026-04-18T10:34:23Z</time></trkpt><trkpt lat="46.09456713711798" lon="9.36024329326197"><ele>1595.7142857142858</ele><time>2026-04-18T10:35:02.999Z</time></trkpt><trkpt lat="46.094504898465985" lon="9.360216012120821"><ele>1599.2857142857142</ele><time>2026-04-18T10:35:15.999Z</time></trkpt><trkpt lat="46.0944435926814" lon="9.36016118569975"><ele>1602.857142857143</ele><time>2026-04-18T10:35:25.999Z</time></trkpt><trkpt lat="46.09438998009732" lon="9.360092593826398"><ele>1606.4285714285713</ele><time>2026-04-18T10:35:37.999Z</time></trkpt><trkpt lat="46.09434267346462" lon="9.360027675090661"><ele>1610.0</ele><time>2026-04-18T10:35:48.999Z</time></trkpt><trkpt lat="46.09428637380828" lon="9.359966498739118"><ele>1610.0</ele><time>2026-04-18T10:36:01Z</time></trkpt><trkpt lat="46.094233973719625" lon="9.35991074757926"><ele>1610.0</ele><time>2026-04-18T10:36:13Z</time></trkpt><trkpt lat="46.094177964914145" lon="9.359868885475288"><ele>1610.0</ele><time>2026-04-18T10:36:25Z</time></trkpt><trkpt lat="46.09414412846059" lon="9.35979038855694"><ele>1610.0</ele><time>2026-04-18T10:36:33Z</time></trkpt><trkpt lat="46.09410480103023" lon="9.359703080356114"><ele>1610.0</ele><time>2026-04-18T10:36:44Z</time></trkpt><trkpt lat="46.09406636562225" lon="9.359629858590283"><ele>1610.0</ele><time>2026-04-18T10:36:52Z</time></trkpt><trkpt lat="46.094020176853896" lon="9.359526237955155"><ele>1610.0</ele><time>2026-04-18T10:37:02Z</time></trkpt><trkpt lat="46.09398910581279" lon="9.359438272223073"><ele>1612.857142857143</ele><time>2026-04-18T10:37:13Z</time></trkpt><trkpt lat="46.09393355375392" lon="9.35937770253651"><ele>1615.7142857142858</ele><time>2026-04-18T10:37:23Z</time></trkpt><trkpt lat="46.0938715589112" lon="9.359336339365935"><ele>1618.5714285714284</ele><time>2026-04-18T10:37:32Z</time></trkpt><trkpt lat="46.09384103967132" lon="9.359231048442984"><ele>1621.4285714285716</ele><time>2026-04-18T10:37:38.999Z</time></trkpt><trkpt lat="46.09379605867365" lon="9.359166194673863"><ele>1624.2857142857142</ele><time>2026-04-18T10:37:47.999Z</time></trkpt><trkpt lat="46.09378224389445" lon="9.359050949851204"><ele>1627.142857142857</ele><time>2026-04-18T10:37:58.999Z</time></trkpt><trkpt lat="46.093719781949154" lon="9.359004256856421"><ele>1630.0</ele><time>2026-04-18T10:38:08Z</time></trkpt><trkpt lat="46.09370749366019" lon="9.358909698615683"><ele>1631.2857142857142</ele><time>2026-04-18T10:38:19Z</time></trkpt><trkpt lat="46.09366822018379" lon="9.358833885769725"><ele>1632.5714285714284</ele><time>2026-04-18T10:38:25Z</time></trkpt><trkpt lat="46.09360803155557" lon="9.358784098773405"><ele>1633.857142857143</ele><time>2026-04-18T10:38:45Z</time></trkpt><trkpt lat="46.093532666037724" lon="9.358761423384234"><ele>1635.142857142857</ele><time>2026-04-18T10:38:56Z</time></trkpt><trkpt lat="46.0935070702397" lon="9.358670369092076"><ele>1636.4285714285716</ele><time>2026-04-18T10:39:07Z</time></trkpt><trkpt lat="46.093483062131966" lon="9.358578266992692"><ele>1637.7142857142858</ele><time>2026-04-18T10:39:27Z</time></trkpt><trkpt lat="46.093477900526636" lon="9.358483028861484"><ele>1639.0</ele><time>2026-04-18T10:39:36Z</time></trkpt><trkpt lat="46.09342924625917" lon="9.358393599680957"><ele>1639.0</ele><time>2026-04-18T10:39:44Z</time></trkpt><trkpt lat="46.093395622371844" lon="9.358299540620896"><ele>1639.0</ele><time>2026-04-18T10:39:53Z</time></trkpt><trkpt lat="46.09334928630166" lon="9.35823018197065"><ele>1639.0</ele><time>2026-04-18T10:40:01Z</time></trkpt><trkpt lat="46.09328692377006" lon="9.358172911035952"><ele>1639.0</ele><time>2026-04-18T10:40:06.999Z</time></trkpt><trkpt lat="46.093225886889826" lon="9.358119762372183"><ele>1639.0</ele><time>2026-04-18T10:40:14Z</time></trkpt><trkpt lat="46.09316957168682" lon="9.358067092188419"><ele>1639.0</ele><time>2026-04-18T10:40:25Z</time></trkpt><trkpt lat="46.093099834598846" lon="9.358066746754206"><ele>1639.0</ele><time>2026-04-18T10:40:43Z</time></trkpt><trkpt lat="46.09304256532392" lon="9.358020017215921"><ele>1639.4285714285716</ele><time>2026-04-18T10:40:47Z</time></trkpt><trkpt lat="46.09297520872035" lon="9.358000403302391"><ele>1639.857142857143</ele><time>2026-04-18T10:40:56Z</time></trkpt><trkpt lat="46.092906987680124" lon="9.35799214616357"><ele>1640.2857142857142</ele><time>2026-04-18T10:41:02Z</time></trkpt><trkpt lat="46.09284766594913" lon="9.358022608002926"><ele>1640.7142857142858</ele><time>2026-04-18T10:41:09Z</time></trkpt><trkpt lat="46.09278679978689" lon="9.358065417552927"><ele>1641.142857142857</ele><time>2026-04-18T10:41:18Z</time></trkpt><trkpt lat="46.09272156264526" lon="9.358101590586225"><ele>1641.5714285714287</ele><time>2026-04-18T10:41:24Z</time></trkpt><trkpt lat="46.092665501757345" lon="9.35815796646588"><ele>1642.0</ele><time>2026-04-18T10:41:31Z</time></trkpt><trkpt lat="46.09259860959984" lon="9.358192901272133"><ele>1642.0000000000002</ele><time>2026-04-18T10:41:39.999Z</time></trkpt><trkpt lat="46.09261932215636" lon="9.358102117730654"><ele>1642.0</ele><time>2026-04-18T10:42:03.999Z</time></trkpt><trkpt lat="46.092624496789625" lon="9.358011037429298"><ele>1642.0</ele><time>2026-04-18T10:42:11.999Z</time></trkpt><trkpt lat="46.092675227431066" lon="9.357925376161909"><ele>1642.0</ele><time>2026-04-18T10:42:19Z</time></trkpt><trkpt lat="46.09266047304867" lon="9.357818885726985"><ele>1642.0</ele><time>2026-04-18T10:42:30Z</time></trkpt><trkpt lat="46.092682077566465" lon="9.357728122588043"><ele>1642.0000000000002</ele><time>2026-04-18T10:42:43Z</time></trkpt><trkpt lat="46.09272444663058" lon="9.357654294030674"><ele>1642.0</ele><time>2026-04-18T10:42:52Z</time></trkpt><trkpt lat="46.092753888620784" lon="9.357552808111212"><ele>1641.7142857142858</ele><time>2026-04-18T10:43:00Z</time></trkpt><trkpt lat="46.092700814946035" lon="9.357609849566987"><ele>1641.4285714285716</ele><time>2026-04-18T10:43:10Z</time></trkpt><trkpt lat="46.092647080908264" lon="9.35768732781219"><ele>1641.1428571428573</ele><time>2026-04-18T10:43:18Z</time></trkpt><trkpt lat="46.09258586156059" lon="9.357722644661248"><ele>1640.857142857143</ele><time>2026-04-18T10:43:26Z</time></trkpt><trkpt lat="46.09252767709313" lon="9.3576637396048"><ele>1640.5714285714284</ele><time>2026-04-18T10:43:36Z</time></trkpt><trkpt lat="46.092481716166255" lon="9.357596162245322"><ele>1640.2857142857144</ele><time>2026-04-18T10:43:41Z</time></trkpt><trkpt lat="46.0924295378332" lon="9.357530035883904"><ele>1640.0</ele><time>2026-04-18T10:43:50.999Z</time></trkpt><trkpt lat="46.09239432859117" lon="9.357444821569395"><ele>1640.0</ele><time>2026-04-18T10:43:58.999Z</time></trkpt><trkpt lat="46.09245771441233" lon="9.357406534143372"><ele>1640.0</ele><time>2026-04-18T10:44:18.999Z</time></trkpt><trkpt lat="46.09250251859277" lon="9.357336488508441"><ele>1640.0</ele><time>2026-04-18T10:44:28Z</time></trkpt><trkpt lat="46.092496689157166" lon="9.357241279858552"><ele>1640.0</ele><time>2026-04-18T10:45:23Z</time></trkpt><trkpt lat="46.09254845172009" lon="9.357317677767776"><ele>1640.0</ele><time>2026-04-18T10:48:39Z</time></trkpt><trkpt lat="46.09248839901205" lon="9.357287690259783"><ele>1640.0</ele><time>2026-04-18T10:49:29Z</time></trkpt><trkpt lat="46.09242538458963" lon="9.357280491446788"><ele>1640.0</ele><time>2026-04-18T10:49:38Z</time></trkpt><trkpt lat="46.09235887379284" lon="9.357303588816327"><ele>1639.9999999999998</ele><time>2026-04-18T10:49:45Z</time></trkpt><trkpt lat="46.09229166722833" lon="9.357302383940533"><ele>1640.0</ele><time>2026-04-18T10:49:53Z</time></trkpt><trkpt lat="46.092229976225035" lon="9.357272075272524"><ele>1640.0</ele><time>2026-04-18T10:50:00.999Z</time></trkpt><trkpt lat="46.092179605940466" lon="9.357215787270226"><ele>1640.0</ele><time>2026-04-18T10:50:06.999Z</time></trkpt><trkpt lat="46.09214497321656" lon="9.357120804601777"><ele>1639.9999999999998</ele><time>2026-04-18T10:50:13.999Z</time></trkpt><trkpt lat="46.09211857691066" lon="9.35702398250876"><ele>1640.0</ele><time>2026-04-18T10:50:20.999Z</time></trkpt><trkpt lat="46.09220535149109" lon="9.35682604899213"><ele>1647.0</ele><time>2026-04-18T10:50:36.664Z</time></trkpt><trkpt lat="46.09215690762431" lon="9.357096441117166"><ele>1654.0</ele><time>2026-04-18T10:51:59.999Z</time></trkpt><trkpt lat="46.09208553950587" lon="9.357046964751131"><ele>1661.0</ele><time>2026-04-18T10:52:12Z</time></trkpt><trkpt lat="46.09206575795353" lon="9.356949653159704"><ele>1668.0</ele><time>2026-04-18T10:52:20Z</time></trkpt><trkpt lat="46.092012076144414" lon="9.356871166827181"><ele>1675.0</ele><time>2026-04-18T10:52:28Z</time></trkpt><trkpt lat="46.09196813694917" lon="9.356793790339054"><ele>1675.0</ele><time>2026-04-18T10:52:35Z</time></trkpt><trkpt lat="46.09195145169799" lon="9.356695792005166"><ele>1675.0</ele><time>2026-04-18T10:52:41Z</time></trkpt><trkpt lat="46.0919121182309" lon="9.356623176987537"><ele>1675.0</ele><time>2026-04-18T10:52:47Z</time></trkpt><trkpt lat="46.09187178486185" lon="9.356535467181331"><ele>1675.0</ele><time>2026-04-18T10:52:54Z</time></trkpt><trkpt lat="46.09184172985806" lon="9.35644279971657"><ele>1675.0</ele><time>2026-04-18T10:53:01Z</time></trkpt><trkpt lat="46.091827553235134" lon="9.356336455596127"><ele>1675.0</ele><time>2026-04-18T10:53:22.999Z</time></trkpt><trkpt lat="46.09176940647944" lon="9.356284803213535"><ele>1675.0</ele><time>2026-04-18T10:53:30.999Z</time></trkpt><trkpt lat="46.09171604322264" lon="9.35623443548343"><ele>1675.5714285714287</ele><time>2026-04-18T10:53:38.999Z</time></trkpt><trkpt lat="46.091672236649515" lon="9.356154105266757"><ele>1676.142857142857</ele><time>2026-04-18T10:53:46.999Z</time></trkpt><trkpt lat="46.09162038868409" lon="9.356094313267251"><ele>1676.7142857142858</ele><time>2026-04-18T10:53:54.999Z</time></trkpt><trkpt lat="46.09155944488375" lon="9.356051020982099"><ele>1677.2857142857142</ele><time>2026-04-18T10:54:01.999Z</time></trkpt><trkpt lat="46.09150771157071" lon="9.355974131989848"><ele>1677.8571428571427</ele><time>2026-04-18T10:54:56Z</time></trkpt><trkpt lat="46.09147087232998" lon="9.355883330549887"><ele>1678.4285714285713</ele><time>2026-04-18T10:55:03Z</time></trkpt><trkpt lat="46.09143983127862" lon="9.355799818448011"><ele>1679.0</ele><time>2026-04-18T10:55:09Z</time></trkpt><trkpt lat="46.09140358834995" lon="9.355721248106903"><ele>1677.2857142857142</ele><time>2026-04-18T10:55:18Z</time></trkpt><trkpt lat="46.091354679591205" lon="9.355656032880463"><ele>1675.5714285714284</ele><time>2026-04-18T10:55:25Z</time></trkpt><trkpt lat="46.09129770709479" lon="9.355608779955771"><ele>1673.857142857143</ele><time>2026-04-18T10:55:33.999Z</time></trkpt><trkpt lat="46.091254094018325" lon="9.355537131286182"><ele>1672.142857142857</ele><time>2026-04-18T10:55:40.999Z</time></trkpt><trkpt lat="46.09120248395266" lon="9.355475800151092"><ele>1670.4285714285716</ele><time>2026-04-18T10:55:47.999Z</time></trkpt><trkpt lat="46.091137680516375" lon="9.355427350707258"><ele>1668.7142857142858</ele><time>2026-04-18T10:56:48Z</time></trkpt><trkpt lat="46.09108821394425" lon="9.355361589640102"><ele>1667.0</ele><time>2026-04-18T10:56:57Z</time></trkpt><trkpt lat="46.09114369903782" lon="9.355296632062037"><ele>1651.0</ele><time>2026-04-18T11:01:41Z</time></trkpt></trkseg><trkseg><trkpt lat="46.09191161584676" lon="9.35694364831723"><ele>1675.0</ele><time>2026-04-18T11:26:46.999Z</time></trkpt><trkpt lat="46.09197242655427" lon="9.356981534519566"><ele>1675.0</ele><time>2026-04-18T11:26:53.999Z</time></trkpt><trkpt lat="46.09202786482838" lon="9.357037520063296"><ele>1675.0</ele><time>2026-04-18T11:27:00.999Z</time></trkpt><trkpt lat="46.09206538873152" lon="9.357119124414718"><ele>1675.0</ele><time>2026-04-18T11:27:07Z</time></trkpt><trkpt lat="46.09211959374749" lon="9.357170649550959"><ele>1675.0</ele><time>2026-04-18T11:27:14Z</time></trkpt><trkpt lat="46.09217663265495" lon="9.357236229954406"><ele>1675.0</ele><time>2026-04-18T11:27:18Z</time></trkpt><trkpt lat="46.09223837838263" lon="9.357285012632843"><ele>1675.0</ele><time>2026-04-18T11:27:28Z</time></trkpt><trkpt lat="46.09231094372625" lon="9.357299424678168"><ele>1673.3333333333335</ele><time>2026-04-18T11:27:33Z</time></trkpt><trkpt lat="46.09238235472083" lon="9.357328334112818"><ele>1671.6666666666667</ele><time>2026-04-18T11:27:41Z</time></trkpt><trkpt lat="46.09245434856596" lon="9.35731301642123"><ele>1670.0</ele><time>2026-04-18T11:27:46.999Z</time></trkpt><trkpt lat="46.09251771242142" lon="9.357330389364005"><ele>1668.3333333333335</ele><time>2026-04-18T11:27:51.999Z</time></trkpt><trkpt lat="46.09242423229232" lon="9.357411804992843"><ele>1666.6666666666667</ele><time>2026-04-18T11:28:30.999Z</time></trkpt><trkpt lat="46.09235584614568" lon="9.357417193575353"><ele>1665.0</ele><time>2026-04-18T11:28:37.999Z</time></trkpt><trkpt lat="46.09235709699892" lon="9.357517282030866"><ele>1665.0</ele><time>2026-04-18T11:28:44.999Z</time></trkpt><trkpt lat="46.09239778388908" lon="9.357596164919338"><ele>1665.0</ele><time>2026-04-18T11:28:52.999Z</time></trkpt><trkpt lat="46.09244832582861" lon="9.357658808043345"><ele>1665.0</ele><time>2026-04-18T11:28:58.999Z</time></trkpt><trkpt lat="46.09250174663846" lon="9.357722302643703"><ele>1665.0</ele><time>2026-04-18T11:29:05.999Z</time></trkpt><trkpt lat="46.09256505814481" lon="9.357753576327735"><ele>1665.0</ele><time>2026-04-18T11:29:11.999Z</time></trkpt><trkpt lat="46.09262675407036" lon="9.357729146263356"><ele>1665.0</ele><time>2026-04-18T11:29:16.999Z</time></trkpt><trkpt lat="46.09268275011165" lon="9.357664692452028"><ele>1665.0</ele><time>2026-04-18T11:29:21.999Z</time></trkpt><trkpt lat="46.092729332558854" lon="9.357580010234068"><ele>1665.0</ele><time>2026-04-18T11:29:30Z</time></trkpt><trkpt lat="46.09279936063657" lon="9.357575350435647"><ele>1665.0</ele><time>2026-04-18T11:29:38Z</time></trkpt><trkpt lat="46.092854807163626" lon="9.357619782170358"><ele>1665.0</ele><time>2026-04-18T11:29:49Z</time></trkpt><trkpt lat="46.092844433826485" lon="9.357712780672662"><ele>1665.0</ele><time>2026-04-18T11:29:59.999Z</time></trkpt><trkpt lat="46.0928933097361" lon="9.357770246207181"><ele>1665.0</ele><time>2026-04-18T11:30:06.999Z</time></trkpt><trkpt lat="46.09290122315687" lon="9.357879051196289"><ele>1665.0</ele><time>2026-04-18T11:30:16.999Z</time></trkpt><trkpt lat="46.09294980330737" lon="9.357937352538"><ele>1665.0</ele><time>2026-04-18T11:30:23.999Z</time></trkpt><trkpt lat="46.09300813112168" lon="9.357983359083356"><ele>1665.0</ele><time>2026-04-18T11:30:30.999Z</time></trkpt><trkpt lat="46.09307435407812" lon="9.358015146544332"><ele>1665.0</ele><time>2026-04-18T11:30:38.999Z</time></trkpt><trkpt lat="46.09314671578641" lon="9.35799216812278"><ele>1665.0</ele><time>2026-04-18T11:30:44.999Z</time></trkpt><trkpt lat="46.09321252134575" lon="9.358018686163549"><ele>1665.0</ele><time>2026-04-18T11:31:00.999Z</time></trkpt><trkpt lat="46.09319375872177" lon="9.35815612852494"><ele>1665.0</ele><time>2026-04-18T11:31:37Z</time></trkpt><trkpt lat="46.09317026249811" lon="9.358248035831243"><ele>1665.0</ele><time>2026-04-18T11:31:59Z</time></trkpt><trkpt lat="46.09313389449193" lon="9.358381091264782"><ele>1661.7142857142858</ele><time>2026-04-18T11:32:03Z</time></trkpt><trkpt lat="46.093161540386745" lon="9.358466326575522"><ele>1658.4285714285713</ele><time>2026-04-18T11:32:09Z</time></trkpt><trkpt lat="46.093215538533485" lon="9.35854966810512"><ele>1655.1428571428573</ele><time>2026-04-18T11:32:15Z</time></trkpt><trkpt lat="46.093230499416485" lon="9.358654204726724"><ele>1651.857142857143</ele><time>2026-04-18T11:32:20Z</time></trkpt><trkpt lat="46.09326644093011" lon="9.35873752597849"><ele>1648.5714285714287</ele><time>2026-04-18T11:32:25Z</time></trkpt><trkpt lat="46.093306156599105" lon="9.358834112550802"><ele>1645.2857142857144</ele><time>2026-04-18T11:32:31Z</time></trkpt><trkpt lat="46.09332672009952" lon="9.358927416208344"><ele>1642.0</ele><time>2026-04-18T11:32:36Z</time></trkpt><trkpt lat="46.093375243089454" lon="9.358999039903452"><ele>1640.2857142857144</ele><time>2026-04-18T11:32:41Z</time></trkpt><trkpt lat="46.093313081802336" lon="9.359020510318734"><ele>1638.5714285714287</ele><time>2026-04-18T11:32:49Z</time></trkpt><trkpt lat="46.093252870709094" lon="9.358951895248898"><ele>1636.857142857143</ele><time>2026-04-18T11:32:53.999Z</time></trkpt><trkpt lat="46.09317782070398" lon="9.358944821136543"><ele>1635.1428571428573</ele><time>2026-04-18T11:32:58.999Z</time></trkpt><trkpt lat="46.093111437139385" lon="9.358902831445539"><ele>1633.4285714285713</ele><time>2026-04-18T11:33:03.999Z</time></trkpt><trkpt lat="46.09304369684534" lon="9.35888208562928"><ele>1631.7142857142858</ele><time>2026-04-18T11:33:10Z</time></trkpt><trkpt lat="46.09297699737956" lon="9.358874416461308"><ele>1630.0</ele><time>2026-04-18T11:33:16Z</time></trkpt><trkpt lat="46.09291285245639" lon="9.358869108918231"><ele>1628.142857142857</ele><time>2026-04-18T11:33:20Z</time></trkpt><trkpt lat="46.09284297587775" lon="9.358892420948768"><ele>1626.2857142857142</ele><time>2026-04-18T11:33:24Z</time></trkpt><trkpt lat="46.09277471942686" lon="9.358894648214585"><ele>1624.4285714285716</ele><time>2026-04-18T11:33:29Z</time></trkpt><trkpt lat="46.09271138435743" lon="9.358906423212984"><ele>1622.5714285714284</ele><time>2026-04-18T11:33:34Z</time></trkpt><trkpt lat="46.092648935523606" lon="9.358942472551707"><ele>1620.7142857142858</ele><time>2026-04-18T11:33:39Z</time></trkpt><trkpt lat="46.09258511015179" lon="9.358897311491328"><ele>1618.857142857143</ele><time>2026-04-18T11:33:44Z</time></trkpt><trkpt lat="46.09251671362011" lon="9.358890704496435"><ele>1617.0</ele><time>2026-04-18T11:33:49Z</time></trkpt><trkpt lat="46.09244952573444" lon="9.358884924659229"><ele>1616.2857142857142</ele><time>2026-04-18T11:33:54Z</time></trkpt><trkpt lat="46.09239491839919" lon="9.358825788019898"><ele>1615.5714285714284</ele><time>2026-04-18T11:33:59Z</time></trkpt><trkpt lat="46.09233064832975" lon="9.358793327055727"><ele>1614.857142857143</ele><time>2026-04-18T11:34:03Z</time></trkpt><trkpt lat="46.09227148045917" lon="9.358756739372323"><ele>1614.142857142857</ele><time>2026-04-18T11:34:08Z</time></trkpt><trkpt lat="46.09221827833381" lon="9.35868863300807"><ele>1613.4285714285713</ele><time>2026-04-18T11:34:14Z</time></trkpt><trkpt lat="46.09217837781151" lon="9.35860775756275"><ele>1612.7142857142858</ele><time>2026-04-18T11:34:19Z</time></trkpt><trkpt lat="46.09212585665173" lon="9.358543734132969"><ele>1612.0</ele><time>2026-04-18T11:34:25Z</time></trkpt><trkpt lat="46.09206219467544" lon="9.358529110142944"><ele>1612.0</ele><time>2026-04-18T11:34:31Z</time></trkpt><trkpt lat="46.092015151108335" lon="9.358468190314317"><ele>1612.0</ele><time>2026-04-18T11:34:35Z</time></trkpt><trkpt lat="46.09196347357072" lon="9.358398739843095"><ele>1612.0</ele><time>2026-04-18T11:34:41Z</time></trkpt><trkpt lat="46.09189278028267" lon="9.358377815376809"><ele>1612.0</ele><time>2026-04-18T11:34:48Z</time></trkpt><trkpt lat="46.09184060800997" lon="9.358278233972001"><ele>1612.0</ele><time>2026-04-18T11:34:52Z</time></trkpt><trkpt lat="46.09177577146929" lon="9.358306464073577"><ele>1612.0</ele><time>2026-04-18T11:34:56Z</time></trkpt><trkpt lat="46.09170678312643" lon="9.358251206108166"><ele>1612.0</ele><time>2026-04-18T11:35:00Z</time></trkpt><trkpt lat="46.0916454287817" lon="9.35829503766816"><ele>1612.0</ele><time>2026-04-18T11:35:04Z</time></trkpt><trkpt lat="46.09166253655753" lon="9.35839559447864"><ele>1612.0</ele><time>2026-04-18T11:35:07Z</time></trkpt><trkpt lat="46.091719450325044" lon="9.358460715765663"><ele>1612.0</ele><time>2026-04-18T11:35:11.999Z</time></trkpt><trkpt lat="46.09178908586023" lon="9.3584991285604"><ele>1612.0</ele><time>2026-04-18T11:35:16Z</time></trkpt><trkpt lat="46.09183032814473" lon="9.358582974234643"><ele>1612.0</ele><time>2026-04-18T11:35:21Z</time></trkpt><trkpt lat="46.091881206899615" lon="9.35866261685624"><ele>1612.0</ele><time>2026-04-18T11:35:26Z</time></trkpt><trkpt lat="46.091903987713046" lon="9.358748703762243"><ele>1612.0</ele><time>2026-04-18T11:35:30Z</time></trkpt><trkpt lat="46.0919472335801" lon="9.358833484446224"><ele>1608.142857142857</ele><time>2026-04-18T11:35:36Z</time></trkpt><trkpt lat="46.0919799458482" lon="9.358919399452342"><ele>1604.2857142857142</ele><time>2026-04-18T11:35:43Z</time></trkpt><trkpt lat="46.092028230793986" lon="9.358978725207898"><ele>1600.4285714285713</ele><time>2026-04-18T11:35:48Z</time></trkpt><trkpt lat="46.092092274798226" lon="9.358979825782471"><ele>1596.5714285714284</ele><time>2026-04-18T11:35:52Z</time></trkpt><trkpt lat="46.092140357575595" lon="9.35905219317874"><ele>1592.7142857142858</ele><time>2026-04-18T11:35:57Z</time></trkpt><trkpt lat="46.09217876325485" lon="9.359140125521497"><ele>1588.8571428571427</ele><time>2026-04-18T11:36:01Z</time></trkpt><trkpt lat="46.092245264148495" lon="9.359201591528825"><ele>1585.0</ele><time>2026-04-18T11:36:06Z</time></trkpt><trkpt lat="46.09229263893023" lon="9.359266112740615"><ele>1584.9999999999998</ele><time>2026-04-18T11:36:10Z</time></trkpt><trkpt lat="46.09222587413342" lon="9.359230914063867"><ele>1585.0</ele><time>2026-04-18T11:36:21Z</time></trkpt><trkpt lat="46.09216678307872" lon="9.359156632464277"><ele>1585.0</ele><time>2026-04-18T11:36:27Z</time></trkpt><trkpt lat="46.09212024503784" lon="9.359073232633943"><ele>1585.0</ele><time>2026-04-18T11:36:30Z</time></trkpt><trkpt lat="46.09204448169482" lon="9.359024072125312"><ele>1585.0</ele><time>2026-04-18T11:36:34Z</time></trkpt><trkpt lat="46.0919770691235" lon="9.359019274545993"><ele>1584.9999999999998</ele><time>2026-04-18T11:36:39Z</time></trkpt><trkpt lat="46.09191687447864" lon="9.35897928977662"><ele>1585.0</ele><time>2026-04-18T11:36:43Z</time></trkpt><trkpt lat="46.09189485241477" lon="9.358892506645317"><ele>1584.9999999999998</ele><time>2026-04-18T11:36:46Z</time></trkpt><trkpt lat="46.09182983567915" lon="9.358919958317246"><ele>1585.0</ele><time>2026-04-18T11:36:49Z</time></trkpt><trkpt lat="46.09181902056288" lon="9.358817978488634"><ele>1585.0</ele><time>2026-04-18T11:36:53Z</time></trkpt><trkpt lat="46.091743314875814" lon="9.35879259919611"><ele>1585.0</ele><time>2026-04-18T11:36:58Z</time></trkpt><trkpt lat="46.091689119259655" lon="9.358746203335219"><ele>1585.0</ele><time>2026-04-18T11:37:01.999Z</time></trkpt><trkpt lat="46.09162431478016" lon="9.35870000642956"><ele>1584.9999999999998</ele><time>2026-04-18T11:37:10.999Z</time></trkpt><trkpt lat="46.09156143067183" lon="9.358690388755772"><ele>1585.0</ele><time>2026-04-18T11:37:17.999Z</time></trkpt><trkpt lat="46.091534338192815" lon="9.358590159614469"><ele>1583.3333333333335</ele><time>2026-04-18T11:37:24Z</time></trkpt><trkpt lat="46.091442064866214" lon="9.35854883912207"><ele>1581.6666666666667</ele><time>2026-04-18T11:37:28Z</time></trkpt><trkpt lat="46.09137468304569" lon="9.35851333593233"><ele>1580.0</ele><time>2026-04-18T11:37:37Z</time></trkpt><trkpt lat="46.09130383987231" lon="9.358437122544146"><ele>1578.3333333333335</ele><time>2026-04-18T11:37:43Z</time></trkpt><trkpt lat="46.091258706203305" lon="9.358363378449829"><ele>1576.6666666666667</ele><time>2026-04-18T11:37:49Z</time></trkpt><trkpt lat="46.0911959483528" lon="9.358310353703077"><ele>1575.0</ele><time>2026-04-18T11:37:55Z</time></trkpt><trkpt lat="46.09116608410364" lon="9.358219551156653"><ele>1575.0</ele><time>2026-04-18T11:38:01Z</time></trkpt><trkpt lat="46.09110370997842" lon="9.358178900136856"><ele>1575.0</ele><time>2026-04-18T11:38:07Z</time></trkpt><trkpt lat="46.09104986859153" lon="9.35810329797079"><ele>1575.0</ele><time>2026-04-18T11:38:12Z</time></trkpt><trkpt lat="46.090987174565235" lon="9.35808714998473"><ele>1575.0</ele><time>2026-04-18T11:38:13Z</time></trkpt><trkpt lat="46.09093051202233" lon="9.358038546207885"><ele>1575.0</ele><time>2026-04-18T11:38:20Z</time></trkpt><trkpt lat="46.09086140595869" lon="9.358028342870897"><ele>1575.0</ele><time>2026-04-18T11:38:24Z</time></trkpt><trkpt lat="46.09080079190578" lon="9.358002656241304"><ele>1575.0</ele><time>2026-04-18T11:38:27Z</time></trkpt><trkpt lat="46.090743147001234" lon="9.357951879551516"><ele>1573.0</ele><time>2026-04-18T11:38:32Z</time></trkpt><trkpt lat="46.090682509464244" lon="9.358021951635555"><ele>1571.0</ele><time>2026-04-18T11:38:37Z</time></trkpt><trkpt lat="46.09063177613128" lon="9.357943127545667"><ele>1569.0</ele><time>2026-04-18T11:38:41Z</time></trkpt><trkpt lat="46.09064006152173" lon="9.357841366454982"><ele>1567.0</ele><time>2026-04-18T11:38:45Z</time></trkpt><trkpt lat="46.09057410130495" lon="9.357823871033979"><ele>1565.0</ele><time>2026-04-18T11:38:51Z</time></trkpt><trkpt lat="46.09051088760947" lon="9.357782983687462"><ele>1563.0</ele><time>2026-04-18T11:38:57.999Z</time></trkpt><trkpt lat="46.09044743246856" lon="9.35775212824108"><ele>1561.0</ele><time>2026-04-18T11:39:00.999Z</time></trkpt><trkpt lat="46.090373044599275" lon="9.357754093221088"><ele>1561.0</ele><time>2026-04-18T11:39:05.999Z</time></trkpt><trkpt lat="46.09033094894035" lon="9.357679036177645"><ele>1561.0</ele><time>2026-04-18T11:39:08.999Z</time></trkpt><trkpt lat="46.09025936361773" lon="9.357640135042669"><ele>1561.0</ele><time>2026-04-18T11:39:14.999Z</time></trkpt><trkpt lat="46.090188922560046" lon="9.357636319979871"><ele>1561.0</ele><time>2026-04-18T11:39:19.999Z</time></trkpt><trkpt lat="46.09012290003056" lon="9.357606502335726"><ele>1561.0</ele><time>2026-04-18T11:39:23.999Z</time></trkpt><trkpt lat="46.090058238680164" lon="9.357606529194454"><ele>1561.0</ele><time>2026-04-18T11:39:29Z</time></trkpt><trkpt lat="46.089987938054314" lon="9.357607523069031"><ele>1561.0</ele><time>2026-04-18T11:39:34Z</time></trkpt><trkpt lat="46.08993255441681" lon="9.35754183555861"><ele>1561.0</ele><time>2026-04-18T11:39:40Z</time></trkpt><trkpt lat="46.08986209446282" lon="9.357513496667197"><ele>1561.0</ele><time>2026-04-18T11:39:46Z</time></trkpt><trkpt lat="46.08978946724817" lon="9.35746555775799"><ele>1561.0</ele><time>2026-04-18T11:39:51Z</time></trkpt><trkpt lat="46.08972690332483" lon="9.357424590453327"><ele>1561.0</ele><time>2026-04-18T11:39:56Z</time></trkpt><trkpt lat="46.08978342824926" lon="9.357512624868193"><ele>1561.0</ele><time>2026-04-18T11:40:07Z</time></trkpt><trkpt lat="46.08983180098536" lon="9.357581243263398"><ele>1561.0</ele><time>2026-04-18T11:40:12Z</time></trkpt><trkpt lat="46.089887722839165" lon="9.357624845900379"><ele>1561.0</ele><time>2026-04-18T11:40:17Z</time></trkpt><trkpt lat="46.089929347254476" lon="9.357693219892644"><ele>1561.0</ele><time>2026-04-18T11:40:21Z</time></trkpt><trkpt lat="46.08999273846301" lon="9.357727262022157"><ele>1561.0</ele><time>2026-04-18T11:40:26Z</time></trkpt><trkpt lat="46.09001718170772" lon="9.357815501412244"><ele>1561.0</ele><time>2026-04-18T11:40:30Z</time></trkpt><trkpt lat="46.09003527646028" lon="9.357913087908004"><ele>1561.0</ele><time>2026-04-18T11:40:34Z</time></trkpt><trkpt lat="46.09005423247391" lon="9.358022083132612"><ele>1561.0</ele><time>2026-04-18T11:40:39Z</time></trkpt><trkpt lat="46.090109302985844" lon="9.358076162045453"><ele>1561.0</ele><time>2026-04-18T11:40:44Z</time></trkpt><trkpt lat="46.090138388714124" lon="9.358169425177671"><ele>1561.0</ele><time>2026-04-18T11:40:48.999Z</time></trkpt><trkpt lat="46.0901854670321" lon="9.358238739671828"><ele>1558.5714285714287</ele><time>2026-04-18T11:40:54.999Z</time></trkpt><trkpt lat="46.09023351918219" lon="9.358299667352238"><ele>1556.142857142857</ele><time>2026-04-18T11:40:58.999Z</time></trkpt><trkpt lat="46.09024621550538" lon="9.358403759368253"><ele>1553.7142857142858</ele><time>2026-04-18T11:41:04.999Z</time></trkpt><trkpt lat="46.09028497903425" lon="9.35847705132973"><ele>1551.2857142857142</ele><time>2026-04-18T11:41:14.999Z</time></trkpt><trkpt lat="46.090323863176714" lon="9.358568121430986"><ele>1548.857142857143</ele><time>2026-04-18T11:41:19.999Z</time></trkpt><trkpt lat="46.09037097340215" lon="9.35863726608592"><ele>1546.4285714285716</ele><time>2026-04-18T11:41:24.999Z</time></trkpt><trkpt lat="46.09039737066059" lon="9.35872159425193"><ele>1544.0</ele><time>2026-04-18T11:41:29.999Z</time></trkpt><trkpt lat="46.09041324029756" lon="9.358823427111473"><ele>1539.7142857142858</ele><time>2026-04-18T11:41:36Z</time></trkpt><trkpt lat="46.09044791606295" lon="9.358899332842192"><ele>1535.4285714285716</ele><time>2026-04-18T11:41:41Z</time></trkpt><trkpt lat="46.09048312027873" lon="9.358974971803022"><ele>1531.1428571428573</ele><time>2026-04-18T11:41:46Z</time></trkpt><trkpt lat="46.090491515762416" lon="9.35908399915304"><ele>1526.857142857143</ele><time>2026-04-18T11:41:51Z</time></trkpt><trkpt lat="46.09049853350514" lon="9.359194115378678"><ele>1522.5714285714284</ele><time>2026-04-18T11:41:57Z</time></trkpt><trkpt lat="46.09053538317033" lon="9.359269649977072"><ele>1518.2857142857144</ele><time>2026-04-18T11:42:02Z</time></trkpt><trkpt lat="46.090575920235246" lon="9.35934292649276"><ele>1514.0</ele><time>2026-04-18T11:42:06Z</time></trkpt><trkpt lat="46.09059740070145" lon="9.359440608744446"><ele>1514.0</ele><time>2026-04-18T11:42:11Z</time></trkpt><trkpt lat="46.09062774450198" lon="9.359542845054868"><ele>1514.0</ele><time>2026-04-18T11:42:17Z</time></trkpt><trkpt lat="46.090681060423464" lon="9.35961385793126"><ele>1514.0</ele><time>2026-04-18T11:42:22Z</time></trkpt><trkpt lat="46.0906961039411" lon="9.359702495802665"><ele>1514.0</ele><time>2026-04-18T11:42:26Z</time></trkpt><trkpt lat="46.09074080524044" lon="9.359769113543516"><ele>1514.0</ele><time>2026-04-18T11:42:31Z</time></trkpt><trkpt lat="46.090775294776236" lon="9.359857666882647"><ele>1514.0</ele><time>2026-04-18T11:42:36Z</time></trkpt><trkpt lat="46.09083396769112" lon="9.359929579601266"><ele>1514.0</ele><time>2026-04-18T11:42:41Z</time></trkpt><trkpt lat="46.0908739010831" lon="9.36001166081316"><ele>1515.857142857143</ele><time>2026-04-18T11:42:47Z</time></trkpt><trkpt lat="46.09093608645084" lon="9.360064190108854"><ele>1517.7142857142856</ele><time>2026-04-18T11:42:53Z</time></trkpt><trkpt lat="46.090992737689895" lon="9.360117231995854"><ele>1519.5714285714284</ele><time>2026-04-18T11:42:57.999Z</time></trkpt><trkpt lat="46.09104337750387" lon="9.360193559315622"><ele>1521.4285714285716</ele><time>2026-04-18T11:43:04.999Z</time></trkpt><trkpt lat="46.09110742972004" lon="9.360245362694611"><ele>1523.2857142857142</ele><time>2026-04-18T11:43:10.999Z</time></trkpt><trkpt lat="46.091173244071314" lon="9.360278041555686"><ele>1525.142857142857</ele><time>2026-04-18T11:43:16.999Z</time></trkpt><trkpt lat="46.09123531501324" lon="9.360341294024833"><ele>1527.0</ele><time>2026-04-18T11:43:21.999Z</time></trkpt><trkpt lat="46.091246288318736" lon="9.360436508339061"><ele>1527.0</ele><time>2026-04-18T11:43:25.999Z</time></trkpt><trkpt lat="46.09129672008188" lon="9.360501955847385"><ele>1527.0</ele><time>2026-04-18T11:43:30.999Z</time></trkpt><trkpt lat="46.09133626525832" lon="9.360580089033531"><ele>1527.0</ele><time>2026-04-18T11:43:35.999Z</time></trkpt><trkpt lat="46.09138897657317" lon="9.360644630830635"><ele>1527.0</ele><time>2026-04-18T11:43:41Z</time></trkpt><trkpt lat="46.0914240295578" lon="9.36074357847801"><ele>1527.0</ele><time>2026-04-18T11:43:46Z</time></trkpt><trkpt lat="46.091463669872255" lon="9.360816700562745"><ele>1527.0</ele><time>2026-04-18T11:43:50Z</time></trkpt><trkpt lat="46.09152682673599" lon="9.360845154065805"><ele>1527.0</ele><time>2026-04-18T11:43:55Z</time></trkpt><trkpt lat="46.09158846932101" lon="9.360824853624406"><ele>1526.2857142857142</ele><time>2026-04-18T11:43:58Z</time></trkpt><trkpt lat="46.091646178138326" lon="9.360887008877702"><ele>1525.5714285714287</ele><time>2026-04-18T11:44:03Z</time></trkpt><trkpt lat="46.09171162349797" lon="9.360924022526351"><ele>1524.8571428571427</ele><time>2026-04-18T11:44:09Z</time></trkpt><trkpt lat="46.091766436078295" lon="9.360983132955095"><ele>1524.142857142857</ele><time>2026-04-18T11:44:14Z</time></trkpt><trkpt lat="46.09181257148296" lon="9.361060837507"><ele>1523.4285714285713</ele><time>2026-04-18T11:44:19Z</time></trkpt><trkpt lat="46.09187243069123" lon="9.361120332703612"><ele>1522.7142857142856</ele><time>2026-04-18T11:44:25Z</time></trkpt><trkpt lat="46.09193614304432" lon="9.361151727451784"><ele>1522.0</ele><time>2026-04-18T11:44:31Z</time></trkpt><trkpt lat="46.09199416466421" lon="9.361195092409268"><ele>1521.9999999999998</ele><time>2026-04-18T11:44:37Z</time></trkpt><trkpt lat="46.09205282729963" lon="9.36123638930193"><ele>1522.0</ele><time>2026-04-18T11:44:42Z</time></trkpt><trkpt lat="46.0921189344286" lon="9.361263032267045"><ele>1522.0</ele><time>2026-04-18T11:44:47Z</time></trkpt><trkpt lat="46.092188942925006" lon="9.361311793695204"><ele>1522.0</ele><time>2026-04-18T11:44:51Z</time></trkpt><trkpt lat="46.09225655309276" lon="9.36134962092514"><ele>1522.0</ele><time>2026-04-18T11:44:56Z</time></trkpt><trkpt lat="46.09232484674428" lon="9.361361469087708"><ele>1521.9999999999998</ele><time>2026-04-18T11:45:02Z</time></trkpt><trkpt lat="46.09238012699967" lon="9.361410696340254"><ele>1522.0</ele><time>2026-04-18T11:45:07Z</time></trkpt><trkpt lat="46.092437631085126" lon="9.361453541087037"><ele>1519.9999999999998</ele><time>2026-04-18T11:45:11.999Z</time></trkpt><trkpt lat="46.09250231580565" lon="9.361514974718531"><ele>1518.0</ele><time>2026-04-18T11:45:18.999Z</time></trkpt><trkpt lat="46.09256324746366" lon="9.361578259854069"><ele>1516.0</ele><time>2026-04-18T11:45:23.999Z</time></trkpt><trkpt lat="46.09262450475633" lon="9.361632175014954"><ele>1514.0</ele><time>2026-04-18T11:45:28.999Z</time></trkpt><trkpt lat="46.092688150167156" lon="9.361659773158058"><ele>1512.0</ele><time>2026-04-18T11:45:33.999Z</time></trkpt><trkpt lat="46.09275771921351" lon="9.361664203489909"><ele>1509.9999999999998</ele><time>2026-04-18T11:45:38.999Z</time></trkpt><trkpt lat="46.09282275225124" lon="9.361660607992894"><ele>1508.0</ele><time>2026-04-18T11:45:43.999Z</time></trkpt><trkpt lat="46.09289076149524" lon="9.361658653443058"><ele>1507.9999999999998</ele><time>2026-04-18T11:45:49Z</time></trkpt><trkpt lat="46.09295296662241" lon="9.361716273836498"><ele>1508.0</ele><time>2026-04-18T11:45:53Z</time></trkpt><trkpt lat="46.09302174071523" lon="9.361745097799782"><ele>1508.0</ele><time>2026-04-18T11:45:58Z</time></trkpt><trkpt lat="46.09308737444952" lon="9.3617503843812"><ele>1508.0</ele><time>2026-04-18T11:46:03Z</time></trkpt><trkpt lat="46.09315493162803" lon="9.361736582861894"><ele>1508.0</ele><time>2026-04-18T11:46:08Z</time></trkpt><trkpt lat="46.09321403149376" lon="9.361802586468686"><ele>1507.9999999999998</ele><time>2026-04-18T11:46:13Z</time></trkpt><trkpt lat="46.093278460281596" lon="9.361817628895432"><ele>1508.0</ele><time>2026-04-18T11:46:18Z</time></trkpt><trkpt lat="46.09333972102806" lon="9.36184379943009"><ele>1509.7142857142856</ele><time>2026-04-18T11:46:23Z</time></trkpt><trkpt lat="46.0934028851497" lon="9.361876364933195"><ele>1511.4285714285713</ele><time>2026-04-18T11:46:29Z</time></trkpt><trkpt lat="46.093461449026016" lon="9.361915478459332"><ele>1513.142857142857</ele><time>2026-04-18T11:46:34Z</time></trkpt><trkpt lat="46.093521878007834" lon="9.361969010427009"><ele>1514.8571428571427</ele><time>2026-04-18T11:46:39Z</time></trkpt><trkpt lat="46.09358652205703" lon="9.361967399048105"><ele>1516.5714285714287</ele><time>2026-04-18T11:46:43Z</time></trkpt><trkpt lat="46.09365462281258" lon="9.361970336640573"><ele>1518.2857142857142</ele><time>2026-04-18T11:46:49Z</time></trkpt><trkpt lat="46.09371793782169" lon="9.361996532326657"><ele>1520.0</ele><time>2026-04-18T11:46:54Z</time></trkpt><trkpt lat="46.09378668677562" lon="9.362018799610652"><ele>1520.0</ele><time>2026-04-18T11:46:59Z</time></trkpt><trkpt lat="46.09385188299245" lon="9.3620575357339"><ele>1520.0</ele><time>2026-04-18T11:47:04Z</time></trkpt><trkpt lat="46.093919936256846" lon="9.362110786463713"><ele>1520.0</ele><time>2026-04-18T11:47:10Z</time></trkpt><trkpt lat="46.09398962180966" lon="9.362145956026499"><ele>1520.0</ele><time>2026-04-18T11:47:16Z</time></trkpt><trkpt lat="46.09406290682064" lon="9.362159430718627"><ele>1520.0</ele><time>2026-04-18T11:47:21.999Z</time></trkpt><trkpt lat="46.09412230986981" lon="9.362204724209922"><ele>1520.0</ele><time>2026-04-18T11:47:26.999Z</time></trkpt><trkpt lat="46.094191128902885" lon="9.362262415184473"><ele>1520.0</ele><time>2026-04-18T11:47:32.999Z</time></trkpt><trkpt lat="46.094234291402906" lon="9.362335202206218"><ele>1517.2857142857142</ele><time>2026-04-18T11:47:37.999Z</time></trkpt><trkpt lat="46.094278349256705" lon="9.36241588278816"><ele>1514.5714285714287</ele><time>2026-04-18T11:47:43.999Z</time></trkpt><trkpt lat="46.09431315358008" lon="9.362495540045305"><ele>1511.8571428571427</ele><time>2026-04-18T11:47:48.999Z</time></trkpt><trkpt lat="46.09437353727818" lon="9.362558604053726"><ele>1509.142857142857</ele><time>2026-04-18T11:47:56Z</time></trkpt><trkpt lat="46.09440032888227" lon="9.362645177227183"><ele>1506.4285714285713</ele><time>2026-04-18T11:48:01Z</time></trkpt><trkpt lat="46.09445337578677" lon="9.362696534044588"><ele>1503.7142857142856</ele><time>2026-04-18T11:48:06Z</time></trkpt><trkpt lat="46.09449868335763" lon="9.362762607363008"><ele>1501.0</ele><time>2026-04-18T11:48:11Z</time></trkpt><trkpt lat="46.09455141655524" lon="9.362826724158895"><ele>1500.9999999999998</ele><time>2026-04-18T11:48:16Z</time></trkpt><trkpt lat="46.09460775305051" lon="9.362890876228862"><ele>1501.0</ele><time>2026-04-18T11:48:21Z</time></trkpt><trkpt lat="46.09462435113777" lon="9.362990029550918"><ele>1501.0</ele><time>2026-04-18T11:48:26Z</time></trkpt><trkpt lat="46.09467159245663" lon="9.363061052116587"><ele>1501.0</ele><time>2026-04-18T11:48:33Z</time></trkpt><trkpt lat="46.0947244432524" lon="9.363123370972266"><ele>1501.0</ele><time>2026-04-18T11:48:38Z</time></trkpt><trkpt lat="46.09475442340379" lon="9.36321092868817"><ele>1500.9999999999998</ele><time>2026-04-18T11:48:43Z</time></trkpt><trkpt lat="46.094783713461794" lon="9.36330310006222"><ele>1501.0</ele><time>2026-04-18T11:48:49Z</time></trkpt><trkpt lat="46.0948190056538" lon="9.363381659619357"><ele>1499.7142857142856</ele><time>2026-04-18T11:48:54Z</time></trkpt><trkpt lat="46.094843986038185" lon="9.363476470956154"><ele>1498.4285714285713</ele><time>2026-04-18T11:48:59Z</time></trkpt><trkpt lat="46.09485886532648" lon="9.363567219805947"><ele>1497.142857142857</ele><time>2026-04-18T11:49:04Z</time></trkpt><trkpt lat="46.094896482015955" lon="9.363648841225261"><ele>1495.8571428571427</ele><time>2026-04-18T11:49:08Z</time></trkpt><trkpt lat="46.094914304542364" lon="9.363738253422264"><ele>1494.5714285714287</ele><time>2026-04-18T11:49:14Z</time></trkpt><trkpt lat="46.09495851775715" lon="9.363805864593658"><ele>1493.2857142857142</ele><time>2026-04-18T11:49:18.999Z</time></trkpt><trkpt lat="46.09503286094589" lon="9.363815478898532"><ele>1492.0</ele><time>2026-04-18T11:49:25.999Z</time></trkpt><trkpt lat="46.09509446824608" lon="9.363787914926734"><ele>1492.0</ele><time>2026-04-18T11:49:31.999Z</time></trkpt><trkpt lat="46.09516428308596" lon="9.363820252470992"><ele>1492.0</ele><time>2026-04-18T11:49:38.999Z</time></trkpt><trkpt lat="46.09522118389143" lon="9.363864325376305"><ele>1492.0</ele><time>2026-04-18T11:49:44.999Z</time></trkpt><trkpt lat="46.095286317614914" lon="9.363851645546799"><ele>1492.0</ele><time>2026-04-18T11:49:50.999Z</time></trkpt><trkpt lat="46.09535115925539" lon="9.363846329355127"><ele>1492.0</ele><time>2026-04-18T11:49:56.999Z</time></trkpt><trkpt lat="46.09540617717105" lon="9.363782340726395"><ele>1492.0</ele><time>2026-04-18T11:50:02Z</time></trkpt><trkpt lat="46.095472596599" lon="9.363763019102805"><ele>1492.0</ele><time>2026-04-18T11:50:07Z</time></trkpt><trkpt lat="46.09553717560924" lon="9.363747391317501"><ele>1492.0</ele><time>2026-04-18T11:50:12Z</time></trkpt><trkpt lat="46.095605315675506" lon="9.363782918545756"><ele>1492.0</ele><time>2026-04-18T11:50:21Z</time></trkpt><trkpt lat="46.095637028447555" lon="9.36388529306332"><ele>1492.0</ele><time>2026-04-18T11:50:23Z</time></trkpt><trkpt lat="46.09569399684255" lon="9.363959796592287"><ele>1492.0</ele><time>2026-04-18T11:50:29Z</time></trkpt><trkpt lat="46.09575692550745" lon="9.363989725468327"><ele>1492.0</ele><time>2026-04-18T11:50:35Z</time></trkpt><trkpt lat="46.09581033191138" lon="9.364046596398795"><ele>1492.0</ele><time>2026-04-18T11:50:40Z</time></trkpt><trkpt lat="46.09587859533837" lon="9.364019188931229"><ele>1492.0</ele><time>2026-04-18T11:50:45Z</time></trkpt><trkpt lat="46.09595153206425" lon="9.363990911967516"><ele>1491.4285714285716</ele><time>2026-04-18T11:50:59Z</time></trkpt><trkpt lat="46.09601002050864" lon="9.363956172822025"><ele>1490.857142857143</ele><time>2026-04-18T11:51:01Z</time></trkpt><trkpt lat="46.09604919914651" lon="9.364048319106058"><ele>1490.2857142857142</ele><time>2026-04-18T11:51:06Z</time></trkpt><trkpt lat="46.096083151009225" lon="9.364128146018837"><ele>1489.7142857142858</ele><time>2026-04-18T11:51:13Z</time></trkpt><trkpt lat="46.09608564814606" lon="9.364233984255947"><ele>1489.142857142857</ele><time>2026-04-18T11:51:18.999Z</time></trkpt><trkpt lat="46.09613411797981" lon="9.364309387149751"><ele>1488.5714285714287</ele><time>2026-04-18T11:51:26.999Z</time></trkpt><trkpt lat="46.09615018262585" lon="9.364404310098132"><ele>1488.0</ele><time>2026-04-18T11:51:32.999Z</time></trkpt><trkpt lat="46.09614405166101" lon="9.364504623256583"><ele>1488.0000000000002</ele><time>2026-04-18T11:51:40.999Z</time></trkpt><trkpt lat="46.09615111582327" lon="9.364595491910334"><ele>1488.0</ele><time>2026-04-18T11:51:50.999Z</time></trkpt><trkpt lat="46.09612836028038" lon="9.364696895549637"><ele>1488.0</ele><time>2026-04-18T11:52:02.999Z</time></trkpt><trkpt lat="46.09619209320635" lon="9.364758804944318"><ele>1488.0</ele><time>2026-04-18T11:52:12Z</time></trkpt><trkpt lat="46.09624917160674" lon="9.364835143349833"><ele>1488.0</ele><time>2026-04-18T11:52:24Z</time></trkpt><trkpt lat="46.09629323315799" lon="9.364910990729843"><ele>1488.0000000000002</ele><time>2026-04-18T11:52:36Z</time></trkpt><trkpt lat="46.09632709748672" lon="9.36499387082514"><ele>1488.0</ele><time>2026-04-18T11:52:48Z</time></trkpt><trkpt lat="46.096336956787034" lon="9.365087453079225"><ele>1485.857142857143</ele><time>2026-04-18T11:53:02Z</time></trkpt><trkpt lat="46.09635887347636" lon="9.36518137502183"><ele>1483.7142857142858</ele><time>2026-04-18T11:53:07Z</time></trkpt><trkpt lat="46.09630528994977" lon="9.365269830981955"><ele>1481.5714285714284</ele><time>2026-04-18T11:53:19Z</time></trkpt><trkpt lat="46.09624018939876" lon="9.365305739118988"><ele>1479.4285714285716</ele><time>2026-04-18T11:53:21.999Z</time></trkpt><trkpt lat="46.096186558229675" lon="9.365379454678445"><ele>1477.2857142857142</ele><time>2026-04-18T11:53:26.999Z</time></trkpt><trkpt lat="46.096190164715125" lon="9.365486002006422"><ele>1475.142857142857</ele><time>2026-04-18T11:53:31.999Z</time></trkpt><trkpt lat="46.09615030754708" lon="9.3655661145332"><ele>1473.0</ele><time>2026-04-18T11:53:42.999Z</time></trkpt><trkpt lat="46.096099094482" lon="9.36562014288676"><ele>1470.142857142857</ele><time>2026-04-18T11:53:45.999Z</time></trkpt><trkpt lat="46.09606567382107" lon="9.365701806806772"><ele>1467.2857142857142</ele><time>2026-04-18T11:53:49.999Z</time></trkpt><trkpt lat="46.09608859390433" lon="9.365795712701777"><ele>1464.4285714285716</ele><time>2026-04-18T11:53:55.999Z</time></trkpt><trkpt lat="46.09612257191874" lon="9.365874189957838"><ele>1461.5714285714284</ele><time>2026-04-18T11:53:59.999Z</time></trkpt><trkpt lat="46.096188131246016" lon="9.365909739511075"><ele>1458.7142857142858</ele><time>2026-04-18T11:54:05.999Z</time></trkpt><trkpt lat="46.09624245665577" lon="9.365956374390418"><ele>1455.857142857143</ele><time>2026-04-18T11:54:12Z</time></trkpt><trkpt lat="46.09629390047151" lon="9.366024503767573"><ele>1453.0</ele><time>2026-04-18T11:54:19Z</time></trkpt><trkpt lat="46.096317073855396" lon="9.366126278486275"><ele>1453.0000000000002</ele><time>2026-04-18T11:54:26Z</time></trkpt><trkpt lat="46.09635701707655" lon="9.366207254080487"><ele>1453.0</ele><time>2026-04-18T11:54:33Z</time></trkpt><trkpt lat="46.096396221014416" lon="9.36628385110933"><ele>1453.0</ele><time>2026-04-18T11:54:38Z</time></trkpt><trkpt lat="46.096430454547615" lon="9.366380124495311"><ele>1453.0</ele><time>2026-04-18T11:54:44Z</time></trkpt><trkpt lat="46.096500020881294" lon="9.366440198962458"><ele>1453.0</ele><time>2026-04-18T11:54:51Z</time></trkpt><trkpt lat="46.096521498220305" lon="9.366532755111384"><ele>1453.0000000000002</ele><time>2026-04-18T11:54:56Z</time></trkpt><trkpt lat="46.096554340165596" lon="9.366621217360782"><ele>1453.0</ele><time>2026-04-18T11:55:02Z</time></trkpt><trkpt lat="46.096507654547366" lon="9.36671376094606"><ele>1451.8000000000002</ele><time>2026-04-18T11:55:09Z</time></trkpt><trkpt lat="46.096441448439954" lon="9.366798928261943"><ele>1450.6</ele><time>2026-04-18T11:55:13Z</time></trkpt><trkpt lat="46.096393867518685" lon="9.366863685123366"><ele>1449.4</ele><time>2026-04-18T11:55:20Z</time></trkpt><trkpt lat="46.09635327222091" lon="9.36693656621762"><ele>1448.1999999999998</ele><time>2026-04-18T11:55:29.999Z</time></trkpt><trkpt lat="46.09636462376748" lon="9.366725142330637"><ele>1447.0</ele><time>2026-04-18T11:55:57.533Z</time></trkpt><trkpt lat="46.0963433255852" lon="9.366384565517215"><ele>1447.0</ele><time>2026-04-18T11:56:21.418Z</time></trkpt><trkpt lat="46.096360239747064" lon="9.36668088232068"><ele>1447.0</ele><time>2026-04-18T11:56:52.486Z</time></trkpt><trkpt lat="46.09644309460366" lon="9.366790712725104"><ele>1447.0</ele><time>2026-04-18T11:57:06.999Z</time></trkpt><trkpt lat="46.09636609483016" lon="9.366905289166812"><ele>1447.0</ele><time>2026-04-18T11:57:07.999Z</time></trkpt><trkpt lat="46.09629530457467" lon="9.36701665359854"><ele>1447.0</ele><time>2026-04-18T11:57:09Z</time></trkpt><trkpt lat="46.09633740175215" lon="9.367086515867383"><ele>1447.0</ele><time>2026-04-18T11:58:52.999Z</time></trkpt></trkseg><trkseg><trkpt lat="46.0964185110076" lon="9.366606877576404"><ele>1447.0</ele><time>2026-04-18T13:08:19.73Z</time></trkpt><trkpt lat="46.096485789053176" lon="9.366618484558954"><ele>1447.0</ele><time>2026-04-18T13:08:26.014Z</time></trkpt><trkpt lat="46.09649990380256" lon="9.366524596350374"><ele>1447.0</ele><time>2026-04-18T13:08:36.007Z</time></trkpt><trkpt lat="46.096560124483446" lon="9.366483790906383"><ele>1447.0</ele><time>2026-04-18T13:08:48.003Z</time></trkpt><trkpt lat="46.09662288685084" lon="9.36640389137504"><ele>1447.0</ele><time>2026-04-18T13:08:52.002Z</time></trkpt><trkpt lat="46.096570515694864" lon="9.366486006008039"><ele>1447.0</ele><time>2026-04-18T13:10:05.998Z</time></trkpt><trkpt lat="46.09660506790578" lon="9.366401621905213"><ele>1447.0</ele><time>2026-04-18T13:10:09.998Z</time></trkpt><trkpt lat="46.096647931273004" lon="9.36633448804304"><ele>1448.5714285714284</ele><time>2026-04-18T13:10:13.998Z</time></trkpt><trkpt lat="46.09667260952457" lon="9.366240458690088"><ele>1450.1428571428573</ele><time>2026-04-18T13:10:17.998Z</time></trkpt><trkpt lat="46.09668516551156" lon="9.366127319966854"><ele>1451.7142857142858</ele><time>2026-04-18T13:10:26.998Z</time></trkpt><trkpt lat="46.09664627362339" lon="9.366051985051813"><ele>1453.2857142857142</ele><time>2026-04-18T13:10:32.999Z</time></trkpt><trkpt lat="46.09665963219466" lon="9.36594573969304"><ele>1454.8571428571427</ele><time>2026-04-18T13:10:38.999Z</time></trkpt><trkpt lat="46.09668633150188" lon="9.365854534624752"><ele>1456.4285714285716</ele><time>2026-04-18T13:10:46.999Z</time></trkpt><trkpt lat="46.09670561549468" lon="9.365763314725347"><ele>1458.0</ele><time>2026-04-18T13:10:53.999Z</time></trkpt><trkpt lat="46.09672285168914" lon="9.365669021684836"><ele>1458.0</ele><time>2026-04-18T13:11:01.999Z</time></trkpt><trkpt lat="46.096792718324764" lon="9.36565376392166"><ele>1458.0</ele><time>2026-04-18T13:11:09.999Z</time></trkpt><trkpt lat="46.09686997977434" lon="9.36564847148152"><ele>1458.0</ele><time>2026-04-18T13:11:14.999Z</time></trkpt><trkpt lat="46.09693360123449" lon="9.365608883841398"><ele>1458.0</ele><time>2026-04-18T13:11:19.999Z</time></trkpt><trkpt lat="46.09700051720542" lon="9.365530314135567"><ele>1458.0</ele><time>2026-04-18T13:11:26.999Z</time></trkpt><trkpt lat="46.09704143072165" lon="9.365446648255288"><ele>1458.0</ele><time>2026-04-18T13:11:34.999Z</time></trkpt><trkpt lat="46.09709075226248" lon="9.365332378795422"><ele>1458.4285714285716</ele><time>2026-04-18T13:11:42.999Z</time></trkpt><trkpt lat="46.09712173010629" lon="9.365244939108178"><ele>1458.8571428571427</ele><time>2026-04-18T13:11:49.999Z</time></trkpt><trkpt lat="46.09713206298776" lon="9.365123234221661"><ele>1459.2857142857142</ele><time>2026-04-18T13:11:55.999Z</time></trkpt><trkpt lat="46.09714136537018" lon="9.365018420219531"><ele>1459.7142857142858</ele><time>2026-04-18T13:11:59.999Z</time></trkpt><trkpt lat="46.09714927152868" lon="9.364923994192733"><ele>1460.1428571428573</ele><time>2026-04-18T13:12:05.999Z</time></trkpt><trkpt lat="46.097145596892624" lon="9.364827412117105"><ele>1460.5714285714284</ele><time>2026-04-18T13:12:12.999Z</time></trkpt><trkpt lat="46.09716785185233" lon="9.364707847102494"><ele>1461.0</ele><time>2026-04-18T13:12:20.999Z</time></trkpt><trkpt lat="46.09719353726709" lon="9.364609188176829"><ele>1462.857142857143</ele><time>2026-04-18T13:12:25.998Z</time></trkpt><trkpt lat="46.09722626769608" lon="9.364524632880686"><ele>1464.7142857142858</ele><time>2026-04-18T13:12:30.998Z</time></trkpt><trkpt lat="46.09723661131064" lon="9.364432688909426"><ele>1466.5714285714287</ele><time>2026-04-18T13:12:38Z</time></trkpt><trkpt lat="46.09725325349982" lon="9.364333596035136"><ele>1468.4285714285716</ele><time>2026-04-18T13:12:42Z</time></trkpt><trkpt lat="46.09726570472359" lon="9.36421454880526"><ele>1470.2857142857142</ele><time>2026-04-18T13:12:52Z</time></trkpt><trkpt lat="46.09728680885652" lon="9.364113209369826"><ele>1472.1428571428573</ele><time>2026-04-18T13:12:59Z</time></trkpt><trkpt lat="46.09731060432436" lon="9.364021690646359"><ele>1474.0</ele><time>2026-04-18T13:13:05Z</time></trkpt><trkpt lat="46.09734527135548" lon="9.363921198607565"><ele>1474.7142857142858</ele><time>2026-04-18T13:13:14Z</time></trkpt><trkpt lat="46.0973728102854" lon="9.363832902977956"><ele>1475.4285714285716</ele><time>2026-04-18T13:13:18.999Z</time></trkpt><trkpt lat="46.09737806258755" lon="9.363736033012028"><ele>1476.1428571428573</ele><time>2026-04-18T13:13:25.999Z</time></trkpt><trkpt lat="46.09740092085084" lon="9.363640482776361"><ele>1476.857142857143</ele><time>2026-04-18T13:13:31.999Z</time></trkpt><trkpt lat="46.097426634698586" lon="9.363547687696725"><ele>1477.5714285714284</ele><time>2026-04-18T13:13:37.999Z</time></trkpt><trkpt lat="46.097449885512106" lon="9.363454364162466"><ele>1478.2857142857144</ele><time>2026-04-18T13:13:44.999Z</time></trkpt><trkpt lat="46.09746705541325" lon="9.363366431810025"><ele>1479.0</ele><time>2026-04-18T13:13:50.999Z</time></trkpt><trkpt lat="46.09749918083636" lon="9.363271900648352"><ele>1475.4285714285716</ele><time>2026-04-18T13:13:56.999Z</time></trkpt><trkpt lat="46.097519671711524" lon="9.363176677567635"><ele>1471.8571428571427</ele><time>2026-04-18T13:14:02.999Z</time></trkpt><trkpt lat="46.097545977056924" lon="9.363070003394462"><ele>1468.2857142857142</ele><time>2026-04-18T13:14:09.999Z</time></trkpt><trkpt lat="46.09756436931597" lon="9.3629826334995"><ele>1464.7142857142858</ele><time>2026-04-18T13:14:15.999Z</time></trkpt><trkpt lat="46.09759509220511" lon="9.36287602082011"><ele>1461.1428571428573</ele><time>2026-04-18T13:14:21.999Z</time></trkpt><trkpt lat="46.09760313250704" lon="9.362782916318189"><ele>1457.5714285714284</ele><time>2026-04-18T13:14:26.999Z</time></trkpt><trkpt lat="46.097638282268164" lon="9.362697401983503"><ele>1454.0</ele><time>2026-04-18T13:14:31.999Z</time></trkpt><trkpt lat="46.09765345063881" lon="9.3626026531884"><ele>1454.0</ele><time>2026-04-18T13:14:36.999Z</time></trkpt><trkpt lat="46.09768529661222" lon="9.362520953649028"><ele>1454.0</ele><time>2026-04-18T13:14:42Z</time></trkpt><trkpt lat="46.09769612277779" lon="9.362421405918466"><ele>1454.0</ele><time>2026-04-18T13:14:47Z</time></trkpt><trkpt lat="46.09770677513486" lon="9.362317012688147"><ele>1454.0</ele><time>2026-04-18T13:14:53Z</time></trkpt><trkpt lat="46.09770385737282" lon="9.362224728970064"><ele>1454.0</ele><time>2026-04-18T13:14:58Z</time></trkpt><trkpt lat="46.09767691609541" lon="9.362139019098265"><ele>1454.0</ele><time>2026-04-18T13:15:02Z</time></trkpt><trkpt lat="46.097663517965366" lon="9.362034241585546"><ele>1454.0</ele><time>2026-04-18T13:15:07Z</time></trkpt><trkpt lat="46.09764392693474" lon="9.361937231356276"><ele>1453.857142857143</ele><time>2026-04-18T13:15:12Z</time></trkpt><trkpt lat="46.0976459113941" lon="9.361842363745764"><ele>1453.7142857142858</ele><time>2026-04-18T13:15:20Z</time></trkpt><trkpt lat="46.09764453725582" lon="9.361750837103484"><ele>1453.5714285714287</ele><time>2026-04-18T13:15:27Z</time></trkpt><trkpt lat="46.097633546415175" lon="9.36163227955533"><ele>1453.4285714285716</ele><time>2026-04-18T13:15:31.999Z</time></trkpt><trkpt lat="46.097625990999944" lon="9.361541739212704"><ele>1453.2857142857142</ele><time>2026-04-18T13:15:37.999Z</time></trkpt><trkpt lat="46.097621869100514" lon="9.361449393895564"><ele>1453.1428571428573</ele><time>2026-04-18T13:15:41.999Z</time></trkpt><trkpt lat="46.097624192441366" lon="9.361354275593236"><ele>1453.0</ele><time>2026-04-18T13:15:48.999Z</time></trkpt><trkpt lat="46.0976541628401" lon="9.361272330924518"><ele>1452.2857142857144</ele><time>2026-04-18T13:15:56.999Z</time></trkpt><trkpt lat="46.097663304990924" lon="9.361175900457015"><ele>1451.5714285714287</ele><time>2026-04-18T13:16:03.999Z</time></trkpt><trkpt lat="46.09767708465202" lon="9.361069646863445"><ele>1450.857142857143</ele><time>2026-04-18T13:16:13.999Z</time></trkpt><trkpt lat="46.09769260464246" lon="9.360977971388495"><ele>1450.1428571428573</ele><time>2026-04-18T13:16:20.999Z</time></trkpt><trkpt lat="46.0976935517715" lon="9.360866037474288"><ele>1449.4285714285713</ele><time>2026-04-18T13:16:26.999Z</time></trkpt><trkpt lat="46.09770196234912" lon="9.360766914945525"><ele>1448.7142857142858</ele><time>2026-04-18T13:16:31.999Z</time></trkpt><trkpt lat="46.09769938445274" lon="9.360669342318447"><ele>1448.0</ele><time>2026-04-18T13:16:39.999Z</time></trkpt><trkpt lat="46.09769284205404" lon="9.360570394110702"><ele>1445.0</ele><time>2026-04-18T13:16:45.999Z</time></trkpt><trkpt lat="46.09767259170927" lon="9.360475086987686"><ele>1442.0</ele><time>2026-04-18T13:17:00Z</time></trkpt><trkpt lat="46.09765028772335" lon="9.360369073250547"><ele>1439.0</ele><time>2026-04-18T13:17:08Z</time></trkpt><trkpt lat="46.09762054868063" lon="9.36023539025019"><ele>1436.0</ele><time>2026-04-18T13:17:23Z</time></trkpt><trkpt lat="46.0975999058225" lon="9.36014357470822"><ele>1433.0</ele><time>2026-04-18T13:17:31Z</time></trkpt><trkpt lat="46.097588915738314" lon="9.360025264083669"><ele>1430.0</ele><time>2026-04-18T13:17:42.999Z</time></trkpt><trkpt lat="46.09756755749974" lon="9.359937241897454"><ele>1430.0</ele><time>2026-04-18T13:17:47.999Z</time></trkpt><trkpt lat="46.09756326399799" lon="9.359846172654258"><ele>1430.0</ele><time>2026-04-18T13:17:57.999Z</time></trkpt><trkpt lat="46.09754024826119" lon="9.359749354302162"><ele>1430.0</ele><time>2026-04-18T13:18:05.999Z</time></trkpt><trkpt lat="46.09754449541004" lon="9.359652671185318"><ele>1430.0</ele><time>2026-04-18T13:18:15.999Z</time></trkpt><trkpt lat="46.09752242168855" lon="9.359558038147817"><ele>1430.0</ele><time>2026-04-18T13:18:23.999Z</time></trkpt><trkpt lat="46.09750767257436" lon="9.359468509709377"><ele>1430.0</ele><time>2026-04-18T13:18:37.999Z</time></trkpt><trkpt lat="46.09749054182829" lon="9.359377836551268"><ele>1430.0</ele><time>2026-04-18T13:18:49.999Z</time></trkpt><trkpt lat="46.09745326215179" lon="9.359276017193434"><ele>1429.857142857143</ele><time>2026-04-18T13:18:58Z</time></trkpt><trkpt lat="46.09744701519557" lon="9.359184181255753"><ele>1429.7142857142856</ele><time>2026-04-18T13:19:07Z</time></trkpt><trkpt lat="46.09741649433343" lon="9.359098381736962"><ele>1429.5714285714284</ele><time>2026-04-18T13:19:15Z</time></trkpt><trkpt lat="46.097400568367924" lon="9.359008519070171"><ele>1429.4285714285716</ele><time>2026-04-18T13:19:26Z</time></trkpt><trkpt lat="46.09739197760891" lon="9.358893773109141"><ele>1429.2857142857142</ele><time>2026-04-18T13:19:33Z</time></trkpt><trkpt lat="46.09737270817417" lon="9.358802180290247"><ele>1429.142857142857</ele><time>2026-04-18T13:19:40.999Z</time></trkpt><trkpt lat="46.097359053937126" lon="9.358709965796814"><ele>1429.0</ele><time>2026-04-18T13:19:46.999Z</time></trkpt><trkpt lat="46.097354114959906" lon="9.358617272806216"><ele>1429.0</ele><time>2026-04-18T13:19:54.999Z</time></trkpt><trkpt lat="46.09733739929917" lon="9.358519427157013"><ele>1429.0</ele><time>2026-04-18T13:20:01.999Z</time></trkpt><trkpt lat="46.09729972203879" lon="9.358436954595463"><ele>1429.0</ele><time>2026-04-18T13:20:08.999Z</time></trkpt><trkpt lat="46.097261800802535" lon="9.358356125978903"><ele>1429.0</ele><time>2026-04-18T13:20:16.999Z</time></trkpt><trkpt lat="46.09721143794241" lon="9.3582828114168"><ele>1429.0</ele><time>2026-04-18T13:20:24.999Z</time></trkpt><trkpt lat="46.09718153064915" lon="9.358199723924946"><ele>1429.0</ele><time>2026-04-18T13:20:31.999Z</time></trkpt><trkpt lat="46.097135986927064" lon="9.358129028731529"><ele>1429.0</ele><time>2026-04-18T13:20:41.999Z</time></trkpt><trkpt lat="46.09708261408484" lon="9.35806694769677"><ele>1424.857142857143</ele><time>2026-04-18T13:20:49.999Z</time></trkpt><trkpt lat="46.09702469142752" lon="9.358000099936275"><ele>1420.7142857142858</ele><time>2026-04-18T13:20:56.999Z</time></trkpt><trkpt lat="46.09696823559514" lon="9.357922792657494"><ele>1416.5714285714284</ele><time>2026-04-18T13:21:02.999Z</time></trkpt><trkpt lat="46.09692560672708" lon="9.357852899696724"><ele>1412.4285714285716</ele><time>2026-04-18T13:21:08.999Z</time></trkpt><trkpt lat="46.09687509491988" lon="9.357781519830864"><ele>1408.2857142857142</ele><time>2026-04-18T13:21:15Z</time></trkpt><trkpt lat="46.09683811498094" lon="9.357700954267303"><ele>1404.142857142857</ele><time>2026-04-18T13:21:22Z</time></trkpt><trkpt lat="46.09683875060997" lon="9.357604827918298"><ele>1400.0</ele><time>2026-04-18T13:21:33Z</time></trkpt><trkpt lat="46.09680708429163" lon="9.357523766415623"><ele>1400.0</ele><time>2026-04-18T13:21:40.999Z</time></trkpt><trkpt lat="46.09676643566997" lon="9.357451765161077"><ele>1400.0</ele><time>2026-04-18T13:21:46.999Z</time></trkpt><trkpt lat="46.09674166099976" lon="9.357360824312089"><ele>1400.0</ele><time>2026-04-18T13:21:56.999Z</time></trkpt><trkpt lat="46.09673420340245" lon="9.357261959863836"><ele>1400.0</ele><time>2026-04-18T13:22:05.999Z</time></trkpt><trkpt lat="46.09670183531667" lon="9.357180775435747"><ele>1400.0</ele><time>2026-04-18T13:22:13.999Z</time></trkpt><trkpt lat="46.09668153063783" lon="9.357092496513589"><ele>1400.0</ele><time>2026-04-18T13:22:23.999Z</time></trkpt><trkpt lat="46.09675498544144" lon="9.357097428237347"><ele>1400.0</ele><time>2026-04-18T13:22:29.999Z</time></trkpt><trkpt lat="46.09678155924915" lon="9.357003810880789"><ele>1402.7142857142858</ele><time>2026-04-18T13:22:45.999Z</time></trkpt><trkpt lat="46.096749538641674" lon="9.356912967749711"><ele>1405.4285714285716</ele><time>2026-04-18T13:22:54.999Z</time></trkpt><trkpt lat="46.09675021415299" lon="9.356817616360226"><ele>1408.142857142857</ele><time>2026-04-18T13:23:05.999Z</time></trkpt><trkpt lat="46.09674309962881" lon="9.356720075041983"><ele>1410.857142857143</ele><time>2026-04-18T13:23:13Z</time></trkpt><trkpt lat="46.09671975587156" lon="9.356622777015966"><ele>1413.5714285714287</ele><time>2026-04-18T13:23:19Z</time></trkpt><trkpt lat="46.09667503759496" lon="9.356545437986695"><ele>1416.2857142857142</ele><time>2026-04-18T13:23:27Z</time></trkpt><trkpt lat="46.09661684780032" lon="9.356478924074423"><ele>1419.0</ele><time>2026-04-18T13:23:34Z</time></trkpt><trkpt lat="46.09655592105465" lon="9.356425990787956"><ele>1414.0</ele><time>2026-04-18T13:23:41Z</time></trkpt><trkpt lat="46.09650671533382" lon="9.356350532082159"><ele>1409.0</ele><time>2026-04-18T13:23:46Z</time></trkpt><trkpt lat="46.09644869217646" lon="9.356301446135564"><ele>1404.0</ele><time>2026-04-18T13:23:52Z</time></trkpt><trkpt lat="46.09640617720371" lon="9.356224376409905"><ele>1399.0</ele><time>2026-04-18T13:24:00.999Z</time></trkpt><trkpt lat="46.09633599718119" lon="9.356154661583027"><ele>1394.0</ele><time>2026-04-18T13:24:07.999Z</time></trkpt><trkpt lat="46.096292448633456" lon="9.35608030736086"><ele>1389.0</ele><time>2026-04-18T13:24:12.999Z</time></trkpt><trkpt lat="46.09624454138243" lon="9.356006385684926"><ele>1384.0</ele><time>2026-04-18T13:24:17.999Z</time></trkpt><trkpt lat="46.09619847098183" lon="9.35593803369445"><ele>1384.0</ele><time>2026-04-18T13:24:22.999Z</time></trkpt><trkpt lat="46.0961462535797" lon="9.355875041986762"><ele>1384.0</ele><time>2026-04-18T13:24:32.999Z</time></trkpt><trkpt lat="46.09610895886974" lon="9.355801516412221"><ele>1384.0</ele><time>2026-04-18T13:24:38.999Z</time></trkpt><trkpt lat="46.09606220029057" lon="9.355726826847395"><ele>1384.0</ele><time>2026-04-18T13:24:43.999Z</time></trkpt><trkpt lat="46.096052823647035" lon="9.35562481111459"><ele>1384.0</ele><time>2026-04-18T13:25:00.999Z</time></trkpt><trkpt lat="46.09607283723023" lon="9.355531297703623"><ele>1384.0</ele><time>2026-04-18T13:25:24Z</time></trkpt><trkpt lat="46.09608520156477" lon="9.355426323593873"><ele>1384.0</ele><time>2026-04-18T13:25:31Z</time></trkpt><trkpt lat="46.096093021031535" lon="9.355325151640436"><ele>1380.142857142857</ele><time>2026-04-18T13:25:38Z</time></trkpt><trkpt lat="46.09603054883918" lon="9.355260984883634"><ele>1376.2857142857144</ele><time>2026-04-18T13:25:45Z</time></trkpt><trkpt lat="46.095995798410684" lon="9.355179536241168"><ele>1372.4285714285716</ele><time>2026-04-18T13:25:53Z</time></trkpt><trkpt lat="46.09598905928851" lon="9.355080510729998"><ele>1368.5714285714284</ele><time>2026-04-18T13:26:02Z</time></trkpt><trkpt lat="46.095942790152286" lon="9.354999367816873"><ele>1364.7142857142858</ele><time>2026-04-18T13:26:07Z</time></trkpt><trkpt lat="46.0959453339613" lon="9.3549019464997"><ele>1360.857142857143</ele><time>2026-04-18T13:26:13Z</time></trkpt><trkpt lat="46.09586107953983" lon="9.354858147328736"><ele>1357.0</ele><time>2026-04-18T13:26:19Z</time></trkpt><trkpt lat="46.09584547810527" lon="9.354767314573317"><ele>1353.4285714285713</ele><time>2026-04-18T13:26:25Z</time></trkpt><trkpt lat="46.09582432321892" lon="9.35467840241939"><ele>1349.857142857143</ele><time>2026-04-18T13:26:30Z</time></trkpt><trkpt lat="46.09577611008749" lon="9.354607856338058"><ele>1346.2857142857142</ele><time>2026-04-18T13:26:35.999Z</time></trkpt><trkpt lat="46.095748144506906" lon="9.354515366965112"><ele>1342.7142857142858</ele><time>2026-04-18T13:26:41.999Z</time></trkpt><trkpt lat="46.09570763144401" lon="9.354415563523812"><ele>1339.142857142857</ele><time>2026-04-18T13:26:47.999Z</time></trkpt><trkpt lat="46.09568716783358" lon="9.354322079766195"><ele>1335.5714285714287</ele><time>2026-04-18T13:26:52.999Z</time></trkpt><trkpt lat="46.09568322426617" lon="9.354225694350042"><ele>1332.0</ele><time>2026-04-18T13:27:02.999Z</time></trkpt><trkpt lat="46.095652583226915" lon="9.354125509801635"><ele>1338.857142857143</ele><time>2026-04-18T13:27:08.999Z</time></trkpt><trkpt lat="46.09559250040026" lon="9.354038257242214"><ele>1345.7142857142856</ele><time>2026-04-18T13:27:16.999Z</time></trkpt><trkpt lat="46.09554360737909" lon="9.353975950782353"><ele>1352.5714285714284</ele><time>2026-04-18T13:27:23Z</time></trkpt><trkpt lat="46.095517553597624" lon="9.35387202166054"><ele>1359.4285714285716</ele><time>2026-04-18T13:27:29Z</time></trkpt><trkpt lat="46.09550341917145" lon="9.35377039839656"><ele>1366.2857142857142</ele><time>2026-04-18T13:27:35Z</time></trkpt><trkpt lat="46.095512462701684" lon="9.353675284682389"><ele>1373.142857142857</ele><time>2026-04-18T13:27:41Z</time></trkpt><trkpt lat="46.095510615878695" lon="9.35358181374269"><ele>1380.0</ele><time>2026-04-18T13:27:47Z</time></trkpt><trkpt lat="46.09550112341178" lon="9.353486812547217"><ele>1380.0</ele><time>2026-04-18T13:27:51Z</time></trkpt><trkpt lat="46.09545503214191" lon="9.353415760937725"><ele>1380.0</ele><time>2026-04-18T13:27:56Z</time></trkpt><trkpt lat="46.09542162442479" lon="9.3533382980773"><ele>1380.0</ele><time>2026-04-18T13:28:02Z</time></trkpt><trkpt lat="46.09538743878601" lon="9.353257033813934"><ele>1380.0</ele><time>2026-04-18T13:28:10Z</time></trkpt><trkpt lat="46.095438209470345" lon="9.35320084856785"><ele>1380.0</ele><time>2026-04-18T13:28:14Z</time></trkpt><trkpt lat="46.09543570387184" lon="9.353101320516696"><ele>1380.0</ele><time>2026-04-18T13:28:19Z</time></trkpt><trkpt lat="46.09546084694843" lon="9.353007590830106"><ele>1380.0</ele><time>2026-04-18T13:28:25Z</time></trkpt><trkpt lat="46.09543515196466" lon="9.352913761717652"><ele>1378.0</ele><time>2026-04-18T13:28:33.999Z</time></trkpt><trkpt lat="46.0954561174617" lon="9.35281016351953"><ele>1376.0</ele><time>2026-04-18T13:28:39.999Z</time></trkpt><trkpt lat="46.09541351485245" lon="9.352716974816982"><ele>1374.0</ele><time>2026-04-18T13:28:46.999Z</time></trkpt><trkpt lat="46.09541189155364" lon="9.352606987421929"><ele>1372.0</ele><time>2026-04-18T13:28:52.999Z</time></trkpt><trkpt lat="46.09537867788031" lon="9.352521319159745"><ele>1370.0</ele><time>2026-04-18T13:28:58.999Z</time></trkpt><trkpt lat="46.09532831202092" lon="9.35243761637944"><ele>1368.0</ele><time>2026-04-18T13:29:03.999Z</time></trkpt><trkpt lat="46.09526955665441" lon="9.352385658812121"><ele>1366.0</ele><time>2026-04-18T13:29:07.999Z</time></trkpt><trkpt lat="46.09525073909688" lon="9.352290378259589"><ele>1366.0</ele><time>2026-04-18T13:29:11.999Z</time></trkpt><trkpt lat="46.09520850920451" lon="9.352215690605009"><ele>1366.0</ele><time>2026-04-18T13:29:17.999Z</time></trkpt><trkpt lat="46.09521830498949" lon="9.352123834161473"><ele>1366.0</ele><time>2026-04-18T13:29:29Z</time></trkpt><trkpt lat="46.095244855374354" lon="9.3520314059789"><ele>1366.0</ele><time>2026-04-18T13:29:36Z</time></trkpt><trkpt lat="46.095257120258076" lon="9.351940099715232"><ele>1366.0</ele><time>2026-04-18T13:29:42Z</time></trkpt><trkpt lat="46.09524520636679" lon="9.351849315645456"><ele>1366.0</ele><time>2026-04-18T13:29:51Z</time></trkpt><trkpt lat="46.095209421490985" lon="9.351764037614732"><ele>1366.0</ele><time>2026-04-18T13:29:55Z</time></trkpt><trkpt lat="46.095212181479354" lon="9.35166659303415"><ele>1364.142857142857</ele><time>2026-04-18T13:30:02Z</time></trkpt><trkpt lat="46.095203343499556" lon="9.35156873474931"><ele>1362.2857142857142</ele><time>2026-04-18T13:30:08Z</time></trkpt><trkpt lat="46.0951634564336" lon="9.351490482320136"><ele>1360.4285714285716</ele><time>2026-04-18T13:30:12Z</time></trkpt><trkpt lat="46.09516393860753" lon="9.351388605008637"><ele>1358.5714285714284</ele><time>2026-04-18T13:30:18Z</time></trkpt><trkpt lat="46.095222170591434" lon="9.351344239446052"><ele>1356.7142857142856</ele><time>2026-04-18T13:30:21Z</time></trkpt><trkpt lat="46.095262858123995" lon="9.35124979024576"><ele>1354.857142857143</ele><time>2026-04-18T13:30:27Z</time></trkpt><trkpt lat="46.09526264417377" lon="9.351139688240469"><ele>1353.0</ele><time>2026-04-18T13:30:33Z</time></trkpt><trkpt lat="46.09525464118775" lon="9.351045459237088"><ele>1352.2857142857144</ele><time>2026-04-18T13:30:40Z</time></trkpt><trkpt lat="46.09532406830861" lon="9.351000357072314"><ele>1351.5714285714284</ele><time>2026-04-18T13:30:51Z</time></trkpt><trkpt lat="46.09538538327065" lon="9.350916131907592"><ele>1350.857142857143</ele><time>2026-04-18T13:30:56.999Z</time></trkpt><trkpt lat="46.0954504104885" lon="9.350906977804843"><ele>1350.1428571428573</ele><time>2026-04-18T13:31:00.999Z</time></trkpt><trkpt lat="46.09549473225538" lon="9.350835328544306"><ele>1349.4285714285716</ele><time>2026-04-18T13:31:06.999Z</time></trkpt><trkpt lat="46.09552844949847" lon="9.350741871782152"><ele>1348.7142857142858</ele><time>2026-04-18T13:31:11.999Z</time></trkpt><trkpt lat="46.09549710449701" lon="9.350655909329227"><ele>1348.0</ele><time>2026-04-18T13:31:20.999Z</time></trkpt><trkpt lat="46.0955208673481" lon="9.350549626808329"><ele>1347.7142857142858</ele><time>2026-04-18T13:31:27.999Z</time></trkpt><trkpt lat="46.09553452348018" lon="9.350456020844133"><ele>1347.4285714285716</ele><time>2026-04-18T13:31:36Z</time></trkpt><trkpt lat="46.0955183549213" lon="9.350351843719913"><ele>1347.1428571428573</ele><time>2026-04-18T13:31:42Z</time></trkpt><trkpt lat="46.09552254765354" lon="9.350253936597506"><ele>1346.857142857143</ele><time>2026-04-18T13:31:47Z</time></trkpt><trkpt lat="46.095542051994734" lon="9.350159756179874"><ele>1346.5714285714284</ele><time>2026-04-18T13:31:53Z</time></trkpt><trkpt lat="46.09553229388412" lon="9.350065558705838"><ele>1346.2857142857144</ele><time>2026-04-18T13:32:00Z</time></trkpt><trkpt lat="46.095536429394755" lon="9.349969250003019"><ele>1346.0</ele><time>2026-04-18T13:32:07Z</time></trkpt><trkpt lat="46.095548346356026" lon="9.349864196343981"><ele>1346.0</ele><time>2026-04-18T13:32:13Z</time></trkpt><trkpt lat="46.095561704306306" lon="9.34977046890718"><ele>1346.0</ele><time>2026-04-18T13:32:20Z</time></trkpt><trkpt lat="46.09558644760652" lon="9.34968615501052"><ele>1346.0</ele><time>2026-04-18T13:32:26Z</time></trkpt><trkpt lat="46.095551081906514" lon="9.349600438108311"><ele>1346.0</ele><time>2026-04-18T13:32:32Z</time></trkpt><trkpt lat="46.09556215179728" lon="9.349491705638735"><ele>1346.0</ele><time>2026-04-18T13:32:38Z</time></trkpt><trkpt lat="46.095541778282836" lon="9.34940174043276"><ele>1346.0</ele><time>2026-04-18T13:32:44Z</time></trkpt><trkpt lat="46.09550743533345" lon="9.349321575344891"><ele>1346.0</ele><time>2026-04-18T13:32:50Z</time></trkpt><trkpt lat="46.09550137299865" lon="9.349230481286497"><ele>1344.857142857143</ele><time>2026-04-18T13:32:56Z</time></trkpt><trkpt lat="46.0954752736577" lon="9.34912925735797"><ele>1343.7142857142856</ele><time>2026-04-18T13:33:04Z</time></trkpt><trkpt lat="46.09545840901176" lon="9.349041098889776"><ele>1342.5714285714284</ele><time>2026-04-18T13:33:10Z</time></trkpt><trkpt lat="46.095452442270066" lon="9.348939572502156"><ele>1341.4285714285716</ele><time>2026-04-18T13:33:15.999Z</time></trkpt><trkpt lat="46.0954449544187" lon="9.348817668036347"><ele>1340.2857142857142</ele><time>2026-04-18T13:33:22.999Z</time></trkpt><trkpt lat="46.095412118135094" lon="9.34873364122675"><ele>1339.142857142857</ele><time>2026-04-18T13:33:27.999Z</time></trkpt><trkpt lat="46.09544560156531" lon="9.34865065179871"><ele>1338.0</ele><time>2026-04-18T13:33:35Z</time></trkpt><trkpt lat="46.09542101511475" lon="9.348552963390851"><ele>1335.142857142857</ele><time>2026-04-18T13:33:42Z</time></trkpt><trkpt lat="46.09537357684445" lon="9.348474034466076"><ele>1332.2857142857142</ele><time>2026-04-18T13:33:47Z</time></trkpt><trkpt lat="46.09534120817135" lon="9.34838392570417"><ele>1329.4285714285716</ele><time>2026-04-18T13:33:54Z</time></trkpt><trkpt lat="46.095310815610965" lon="9.34829067338766"><ele>1326.5714285714284</ele><time>2026-04-18T13:34:05Z</time></trkpt><trkpt lat="46.09529740043163" lon="9.348201913545473"><ele>1323.7142857142856</ele><time>2026-04-18T13:34:10Z</time></trkpt><trkpt lat="46.09526957639789" lon="9.348116334784924"><ele>1320.857142857143</ele><time>2026-04-18T13:34:15Z</time></trkpt><trkpt lat="46.095270793519305" lon="9.348022728629795"><ele>1318.0</ele><time>2026-04-18T13:34:23Z</time></trkpt><trkpt lat="46.09524353971188" lon="9.347936562092416"><ele>1315.4285714285716</ele><time>2026-04-18T13:34:33Z</time></trkpt><trkpt lat="46.0952621774717" lon="9.347828940462321"><ele>1312.8571428571427</ele><time>2026-04-18T13:34:42Z</time></trkpt><trkpt lat="46.095235212453936" lon="9.347746698322682"><ele>1310.2857142857142</ele><time>2026-04-18T13:34:53Z</time></trkpt><trkpt lat="46.095239050924995" lon="9.34765421963148"><ele>1307.7142857142858</ele><time>2026-04-18T13:34:59Z</time></trkpt><trkpt lat="46.095207941760385" lon="9.347571393833343"><ele>1305.1428571428573</ele><time>2026-04-18T13:35:08Z</time></trkpt><trkpt lat="46.095210996096505" lon="9.34747050828853"><ele>1302.5714285714284</ele><time>2026-04-18T13:35:17.999Z</time></trkpt><trkpt lat="46.09516657505872" lon="9.34738175406179"><ele>1300.0</ele><time>2026-04-18T13:35:22.999Z</time></trkpt><trkpt lat="46.095148082153294" lon="9.34728735229872"><ele>1297.857142857143</ele><time>2026-04-18T13:35:45Z</time></trkpt><trkpt lat="46.095167182375114" lon="9.347195961068564"><ele>1295.7142857142858</ele><time>2026-04-18T13:35:54Z</time></trkpt><trkpt lat="46.095239358215885" lon="9.347195564095124"><ele>1293.5714285714287</ele><time>2026-04-18T13:36:13Z</time></trkpt><trkpt lat="46.09530169904127" lon="9.347137528023556"><ele>1291.4285714285716</ele><time>2026-04-18T13:36:21Z</time></trkpt><trkpt lat="46.09535750530964" lon="9.347087652728494"><ele>1289.2857142857142</ele><time>2026-04-18T13:36:25Z</time></trkpt><trkpt lat="46.095411611453954" lon="9.347040256511562"><ele>1287.1428571428573</ele><time>2026-04-18T13:36:29Z</time></trkpt><trkpt lat="46.095473374386685" lon="9.347008457624511"><ele>1285.0</ele><time>2026-04-18T13:36:34Z</time></trkpt><trkpt lat="46.095539839622894" lon="9.347009755995469"><ele>1285.0000000000002</ele><time>2026-04-18T13:36:39Z</time></trkpt><trkpt lat="46.09560145068484" lon="9.346965212014988"><ele>1285.0</ele><time>2026-04-18T13:36:44Z</time></trkpt><trkpt lat="46.095649485370224" lon="9.346896857144234"><ele>1285.0</ele><time>2026-04-18T13:36:48Z</time></trkpt><trkpt lat="46.09571419718439" lon="9.346846607191736"><ele>1285.0</ele><time>2026-04-18T13:36:55Z</time></trkpt><trkpt lat="46.09575120300492" lon="9.346768258855368"><ele>1285.0</ele><time>2026-04-18T13:37:00Z</time></trkpt><trkpt lat="46.09580347494719" lon="9.346710959481245"><ele>1285.0000000000002</ele><time>2026-04-18T13:37:04.999Z</time></trkpt><trkpt lat="46.095851014276825" lon="9.346635755608387"><ele>1285.0</ele><time>2026-04-18T13:37:12.999Z</time></trkpt><trkpt lat="46.095901204977466" lon="9.346579890789231"><ele>1284.1428571428573</ele><time>2026-04-18T13:37:17.999Z</time></trkpt><trkpt lat="46.09595692782932" lon="9.34651149952598"><ele>1283.2857142857142</ele><time>2026-04-18T13:37:24.999Z</time></trkpt><trkpt lat="46.09599663488886" lon="9.346428707720204"><ele>1282.4285714285716</ele><time>2026-04-18T13:37:29.999Z</time></trkpt><trkpt lat="46.09604509452212" lon="9.346364406373834"><ele>1281.5714285714287</ele><time>2026-04-18T13:37:34.999Z</time></trkpt><trkpt lat="46.096066003319734" lon="9.3462689476995"><ele>1280.7142857142858</ele><time>2026-04-18T13:37:39.999Z</time></trkpt><trkpt lat="46.09612450327294" lon="9.346231400429575"><ele>1279.857142857143</ele><time>2026-04-18T13:37:45.999Z</time></trkpt><trkpt lat="46.0961840826893" lon="9.346171514307096"><ele>1279.0</ele><time>2026-04-18T13:37:52Z</time></trkpt><trkpt lat="46.096254133320095" lon="9.346143063709164"><ele>1276.142857142857</ele><time>2026-04-18T13:37:58Z</time></trkpt><trkpt lat="46.09631858353803" lon="9.346112750470114"><ele>1273.2857142857144</ele><time>2026-04-18T13:38:06Z</time></trkpt><trkpt lat="46.09638901940376" lon="9.346134591561212"><ele>1270.4285714285716</ele><time>2026-04-18T13:38:12Z</time></trkpt><trkpt lat="46.09644121726524" lon="9.346192175891566"><ele>1267.5714285714284</ele><time>2026-04-18T13:38:18Z</time></trkpt><trkpt lat="46.09650369021233" lon="9.346235265642758"><ele>1264.7142857142858</ele><time>2026-04-18T13:38:24Z</time></trkpt><trkpt lat="46.096567523784394" lon="9.346266096518276"><ele>1261.857142857143</ele><time>2026-04-18T13:38:29Z</time></trkpt><trkpt lat="46.096629835577126" lon="9.346316142042507"><ele>1259.0</ele><time>2026-04-18T13:38:39Z</time></trkpt><trkpt lat="46.09668875437323" lon="9.34637517907618"><ele>1259.0</ele><time>2026-04-18T13:38:44Z</time></trkpt><trkpt lat="46.09671955478255" lon="9.346457002885897"><ele>1259.0</ele><time>2026-04-18T13:38:50Z</time></trkpt><trkpt lat="46.09672346751011" lon="9.34656749618653"><ele>1259.0</ele><time>2026-04-18T13:38:55Z</time></trkpt><trkpt lat="46.09674177743406" lon="9.346660854302987"><ele>1259.0</ele><time>2026-04-18T13:39:06.999Z</time></trkpt><trkpt lat="46.096724604359" lon="9.346751756941732"><ele>1259.0</ele><time>2026-04-18T13:39:13.999Z</time></trkpt><trkpt lat="46.09671451863869" lon="9.346845746842424"><ele>1259.0</ele><time>2026-04-18T13:39:17.999Z</time></trkpt><trkpt lat="46.09678069061527" lon="9.346817179130541"><ele>1259.0</ele><time>2026-04-18T13:39:23.999Z</time></trkpt><trkpt lat="46.09679513972856" lon="9.346715876484971"><ele>1259.0</ele><time>2026-04-18T13:39:29.999Z</time></trkpt><trkpt lat="46.09680744171026" lon="9.346621684759215"><ele>1259.0</ele><time>2026-04-18T13:39:34.999Z</time></trkpt><trkpt lat="46.09681349966225" lon="9.346524924943536"><ele>1259.0</ele><time>2026-04-18T13:39:41.999Z</time></trkpt><trkpt lat="46.0968744524474" lon="9.346492486160505"><ele>1259.0</ele><time>2026-04-18T13:39:44.999Z</time></trkpt><trkpt lat="46.09693395029056" lon="9.346419999386203"><ele>1259.0</ele><time>2026-04-18T13:39:50.999Z</time></trkpt><trkpt lat="46.096929429064325" lon="9.346320476073064"><ele>1259.0</ele><time>2026-04-18T13:39:58Z</time></trkpt><trkpt lat="46.096927812635215" lon="9.346216564019782"><ele>1259.0</ele><time>2026-04-18T13:40:04Z</time></trkpt><trkpt lat="46.09687144687465" lon="9.346147932055505"><ele>1256.6666666666667</ele><time>2026-04-18T13:40:08Z</time></trkpt><trkpt lat="46.09683102952542" lon="9.346073324302367"><ele>1254.3333333333335</ele><time>2026-04-18T13:40:12Z</time></trkpt><trkpt lat="46.09679181509386" lon="9.345986943031782"><ele>1252.0</ele><time>2026-04-18T13:40:18Z</time></trkpt><trkpt lat="46.09676388430784" lon="9.345896762343923"><ele>1249.6666666666667</ele><time>2026-04-18T13:40:27Z</time></trkpt><trkpt lat="46.09676929234514" lon="9.34579764482554"><ele>1247.3333333333333</ele><time>2026-04-18T13:40:32Z</time></trkpt><trkpt lat="46.09674447991538" lon="9.345637477089184"><ele>1245.0</ele><time>2026-04-18T13:40:42Z</time></trkpt><trkpt lat="46.09676863111356" lon="9.345551374506016"><ele>1245.0</ele><time>2026-04-18T13:40:45Z</time></trkpt><trkpt lat="46.09679674863075" lon="9.345635329529493"><ele>1245.0</ele><time>2026-04-18T13:41:00.999Z</time></trkpt><trkpt lat="46.09679489763063" lon="9.345539999148395"><ele>1245.0</ele><time>2026-04-18T13:41:14.999Z</time></trkpt><trkpt lat="46.096835865633736" lon="9.345454393762262"><ele>1245.0</ele><time>2026-04-18T13:41:24.999Z</time></trkpt><trkpt lat="46.09687492370357" lon="9.345365300826018"><ele>1245.0</ele><time>2026-04-18T13:41:31.999Z</time></trkpt><trkpt lat="46.096923592911345" lon="9.345299297054112"><ele>1245.0</ele><time>2026-04-18T13:41:36.999Z</time></trkpt><trkpt lat="46.09692630709845" lon="9.34518804154843"><ele>1245.0</ele><time>2026-04-18T13:41:49.999Z</time></trkpt><trkpt lat="46.09695169494952" lon="9.345095354642915"><ele>1242.5714285714284</ele><time>2026-04-18T13:41:55.999Z</time></trkpt><trkpt lat="46.09696240447729" lon="9.345003723451315"><ele>1240.142857142857</ele><time>2026-04-18T13:42:01Z</time></trkpt><trkpt lat="46.09700013723838" lon="9.3449272525485"><ele>1237.7142857142858</ele><time>2026-04-18T13:42:07Z</time></trkpt><trkpt lat="46.09702867836381" lon="9.34483505205476"><ele>1235.2857142857142</ele><time>2026-04-18T13:42:12Z</time></trkpt><trkpt lat="46.097065284507465" lon="9.344760547191132"><ele>1232.857142857143</ele><time>2026-04-18T13:42:17Z</time></trkpt><trkpt lat="46.097123630223926" lon="9.344721402732187"><ele>1230.4285714285713</ele><time>2026-04-18T13:42:21Z</time></trkpt><trkpt lat="46.09712343460081" lon="9.34462583821823"><ele>1228.0</ele><time>2026-04-18T13:42:27Z</time></trkpt><trkpt lat="46.09713295299397" lon="9.344516129946957"><ele>1225.7142857142856</ele><time>2026-04-18T13:42:32Z</time></trkpt><trkpt lat="46.09715992060467" lon="9.344425740040313"><ele>1223.4285714285713</ele><time>2026-04-18T13:42:38Z</time></trkpt><trkpt lat="46.09721949528638" lon="9.344359483202627"><ele>1221.142857142857</ele><time>2026-04-18T13:42:44Z</time></trkpt><trkpt lat="46.097240064235336" lon="9.344273527095002"><ele>1218.8571428571427</ele><time>2026-04-18T13:42:50Z</time></trkpt><trkpt lat="46.097251047954096" lon="9.344183799151775"><ele>1216.5714285714284</ele><time>2026-04-18T13:42:56Z</time></trkpt><trkpt lat="46.097270104390795" lon="9.344094994734053"><ele>1214.2857142857142</ele><time>2026-04-18T13:43:03Z</time></trkpt><trkpt lat="46.09727966648264" lon="9.344004997879898"><ele>1212.0</ele><time>2026-04-18T13:43:21.999Z</time></trkpt><trkpt lat="46.09730921742629" lon="9.343911411048195"><ele>1210.5714285714287</ele><time>2026-04-18T13:43:30.999Z</time></trkpt><trkpt lat="46.097300223841515" lon="9.343812401473167"><ele>1209.142857142857</ele><time>2026-04-18T13:43:40.999Z</time></trkpt><trkpt lat="46.09729117104186" lon="9.343721429416204"><ele>1207.7142857142858</ele><time>2026-04-18T13:43:47.999Z</time></trkpt><trkpt lat="46.09730237410667" lon="9.343630011640494"><ele>1206.2857142857142</ele><time>2026-04-18T13:43:57.999Z</time></trkpt><trkpt lat="46.09732879536854" lon="9.343535906042"><ele>1204.857142857143</ele><time>2026-04-18T13:44:03.999Z</time></trkpt><trkpt lat="46.097343585878455" lon="9.343431806075989"><ele>1203.4285714285713</ele><time>2026-04-18T13:44:10Z</time></trkpt><trkpt lat="46.09737813823731" lon="9.343344979952205"><ele>1202.0</ele><time>2026-04-18T13:44:15Z</time></trkpt><trkpt lat="46.09737323472057" lon="9.343239394819184"><ele>1202.0</ele><time>2026-04-18T13:44:21Z</time></trkpt><trkpt lat="46.09735536079878" lon="9.343143542874543"><ele>1202.0</ele><time>2026-04-18T13:44:27Z</time></trkpt><trkpt lat="46.09734730509029" lon="9.34304363856376"><ele>1202.0</ele><time>2026-04-18T13:44:35Z</time></trkpt><trkpt lat="46.097358922622675" lon="9.342937182621936"><ele>1202.0</ele><time>2026-04-18T13:44:40Z</time></trkpt><trkpt lat="46.09735763725087" lon="9.34284422711545"><ele>1202.0</ele><time>2026-04-18T13:44:45Z</time></trkpt><trkpt lat="46.097319099337874" lon="9.342768964335601"><ele>1202.0</ele><time>2026-04-18T13:44:49Z</time></trkpt><trkpt lat="46.09733038541682" lon="9.342665174360224"><ele>1202.0</ele><time>2026-04-18T13:44:55Z</time></trkpt><trkpt lat="46.09733323444618" lon="9.342574258587527"><ele>1202.5714285714284</ele><time>2026-04-18T13:45:01Z</time></trkpt><trkpt lat="46.097324754409996" lon="9.342481969836422"><ele>1203.1428571428573</ele><time>2026-04-18T13:45:06Z</time></trkpt><trkpt lat="46.097359421628994" lon="9.342386830786465"><ele>1203.7142857142858</ele><time>2026-04-18T13:45:11Z</time></trkpt><trkpt lat="46.097309604384165" lon="9.342308737099493"><ele>1204.2857142857142</ele><time>2026-04-18T13:45:15.999Z</time></trkpt><trkpt lat="46.09724237500664" lon="9.342293231084957"><ele>1204.8571428571427</ele><time>2026-04-18T13:45:19.999Z</time></trkpt><trkpt lat="46.09717209917881" lon="9.342254162972987"><ele>1205.4285714285716</ele><time>2026-04-18T13:45:23.999Z</time></trkpt><trkpt lat="46.097108632855154" lon="9.34228285139766"><ele>1206.0</ele><time>2026-04-18T13:45:27.999Z</time></trkpt><trkpt lat="46.09703448926422" lon="9.342310444901546"><ele>1206.0</ele><time>2026-04-18T13:45:33.999Z</time></trkpt><trkpt lat="46.096956236459086" lon="9.342322182757366"><ele>1206.0</ele><time>2026-04-18T13:45:38.999Z</time></trkpt><trkpt lat="46.09688817165869" lon="9.342336390828816"><ele>1206.0</ele><time>2026-04-18T13:45:45.999Z</time></trkpt><trkpt lat="46.096830304492464" lon="9.342385146585027"><ele>1206.0</ele><time>2026-04-18T13:46:08.999Z</time></trkpt><trkpt lat="46.09683391042435" lon="9.342526180979291"><ele>1206.0</ele><time>2026-04-18T13:51:29Z</time></trkpt><trkpt lat="46.096849399999996" lon="9.342381433333333"><ele>1206.0</ele><time>2026-04-18T13:52:05.243Z</time></trkpt><trkpt lat="46.0968597" lon="9.342497183333334"><ele>1206.0</ele><time>2026-04-18T13:52:10.238Z</time></trkpt><trkpt lat="46.09681108333333" lon="9.342592733333333"><ele>1206.0</ele><time>2026-04-18T13:52:13.237Z</time></trkpt><trkpt lat="46.09675895" lon="9.3426852"><ele>1206.0</ele><time>2026-04-18T13:52:17.247Z</time></trkpt><trkpt lat="46.09670941666667" lon="9.342768433333333"><ele>1206.0</ele><time>2026-04-18T13:52:20.278Z</time></trkpt><trkpt lat="46.096660716666676" lon="9.342848049999999"><ele>1206.0</ele><time>2026-04-18T13:52:23.275Z</time></trkpt><trkpt lat="46.09659961666666" lon="9.342892316666665"><ele>1206.0</ele><time>2026-04-18T13:52:26.231Z</time></trkpt><trkpt lat="46.096532216666674" lon="9.342893649999999"><ele>1201.8333333333333</ele><time>2026-04-18T13:52:29.279Z</time></trkpt><trkpt lat="46.09646735" lon="9.342857016666667"><ele>1197.6666666666667</ele><time>2026-04-18T13:52:31.285Z</time></trkpt><trkpt lat="46.09641159999999" lon="9.342780916666666"><ele>1193.5</ele><time>2026-04-18T13:52:33.269Z</time></trkpt><trkpt lat="46.09638596666667" lon="9.342655266666664"><ele>1189.3333333333335</ele><time>2026-04-18T13:52:35.272Z</time></trkpt><trkpt lat="46.096378083333335" lon="9.342510683333334"><ele>1185.1666666666667</ele><time>2026-04-18T13:52:37.272Z</time></trkpt><trkpt lat="46.09636784999999" lon="9.342373716666666"><ele>1181.0</ele><time>2026-04-18T13:52:39.263Z</time></trkpt><trkpt lat="46.09634798333333" lon="9.342251766666669"><ele>1181.8</ele><time>2026-04-18T13:52:41.25Z</time></trkpt><trkpt lat="46.09630993333333" lon="9.342112116666668"><ele>1182.6</ele><time>2026-04-18T13:52:43.235Z</time></trkpt><trkpt lat="46.096316485920035" lon="9.342017993860319"><ele>1183.4</ele><time>2026-04-18T13:52:44.27Z</time></trkpt><trkpt lat="46.09626913794671" lon="9.34186421304016"><ele>1184.2</ele><time>2026-04-18T13:52:46.241Z</time></trkpt><trkpt lat="46.09622376893944" lon="9.341713655398625"><ele>1185.0</ele><time>2026-04-18T13:52:48.238Z</time></trkpt><trkpt lat="46.09617996351596" lon="9.341568286557322"><ele>1185.0</ele><time>2026-04-18T13:52:50.285Z</time></trkpt><trkpt lat="46.0961401725972" lon="9.341437690164687"><ele>1185.0</ele><time>2026-04-18T13:52:52.307Z</time></trkpt><trkpt lat="46.09612514055408" lon="9.341313083333334"><ele>1185.0</ele><time>2026-04-18T13:52:54.282Z</time></trkpt><trkpt lat="46.0961309" lon="9.341179799999999"><ele>1185.0</ele><time>2026-04-18T13:53:02.27Z</time></trkpt><trkpt lat="46.096162500000005" lon="9.341070583333334"><ele>1185.0</ele><time>2026-04-18T13:53:04.257Z</time></trkpt><trkpt lat="46.09619678333334" lon="9.340977133333332"><ele>1185.0</ele><time>2026-04-18T13:53:06.281Z</time></trkpt><trkpt lat="46.09624166379835" lon="9.3408777773154"><ele>1183.0</ele><time>2026-04-18T13:53:08.255Z</time></trkpt><trkpt lat="46.09616985049692" lon="9.340775956957007"><ele>1181.0</ele><time>2026-04-18T13:53:10.249Z</time></trkpt><trkpt lat="46.0961096266405" lon="9.340824677250554"><ele>1179.0</ele><time>2026-04-18T13:53:11.256Z</time></trkpt><trkpt lat="46.096056318172764" lon="9.340935081816282"><ele>1177.0</ele><time>2026-04-18T13:53:13.288Z</time></trkpt><trkpt lat="46.095999315337046" lon="9.341038428154707"><ele>1175.0</ele><time>2026-04-18T13:53:15.248Z</time></trkpt><trkpt lat="46.095940267903394" lon="9.341149919998044"><ele>1175.0</ele><time>2026-04-18T13:53:17.261Z</time></trkpt><trkpt lat="46.09589106141208" lon="9.34126162293216"><ele>1175.0</ele><time>2026-04-18T13:53:19.272Z</time></trkpt><trkpt lat="46.0958488864665" lon="9.341378245814534"><ele>1175.0</ele><time>2026-04-18T13:53:21.258Z</time></trkpt><trkpt lat="46.09580550384436" lon="9.341499409389835"><ele>1175.0</ele><time>2026-04-18T13:53:23.289Z</time></trkpt><trkpt lat="46.095757528547985" lon="9.341628905764958"><ele>1175.0</ele><time>2026-04-18T13:53:25.244Z</time></trkpt><trkpt lat="46.09570681498505" lon="9.341762393146215"><ele>1171.6</ele><time>2026-04-18T13:53:27.273Z</time></trkpt><trkpt lat="46.09565725885017" lon="9.341892834030354"><ele>1168.2</ele><time>2026-04-18T13:53:29.274Z</time></trkpt><trkpt lat="46.09561142557813" lon="9.342017222290714"><ele>1164.8</ele><time>2026-04-18T13:53:31.287Z</time></trkpt><trkpt lat="46.095569687680275" lon="9.342133841200388"><ele>1161.4</ele><time>2026-04-18T13:53:33.283Z</time></trkpt><trkpt lat="46.09553853522238" lon="9.342244976053156"><ele>1158.0</ele><time>2026-04-18T13:53:35.288Z</time></trkpt><trkpt lat="46.09550418333333" lon="9.342344966666666"><ele>1158.0</ele><time>2026-04-18T13:53:38.266Z</time></trkpt><trkpt lat="46.09545925000001" lon="9.34225445"><ele>1158.0</ele><time>2026-04-18T13:53:41.27Z</time></trkpt><trkpt lat="46.09549118333333" lon="9.342164683333333"><ele>1158.0</ele><time>2026-04-18T13:53:43.287Z</time></trkpt><trkpt lat="46.095507700000006" lon="9.342060400000001"><ele>1158.0</ele><time>2026-04-18T13:53:45.262Z</time></trkpt><trkpt lat="46.095523050000004" lon="9.341936933333333"><ele>1158.0</ele><time>2026-04-18T13:53:47.262Z</time></trkpt><trkpt lat="46.09551943333333" lon="9.341794700000001"><ele>1158.0</ele><time>2026-04-18T13:53:49.282Z</time></trkpt><trkpt lat="46.09552136927786" lon="9.341653950778408"><ele>1158.0</ele><time>2026-04-18T13:53:51.272Z</time></trkpt><trkpt lat="46.09550183333334" lon="9.341539383333334"><ele>1158.0</ele><time>2026-04-18T13:53:54.266Z</time></trkpt><trkpt lat="46.09551884999999" lon="9.341415583333331"><ele>1158.0</ele><time>2026-04-18T13:54:02.27Z</time></trkpt><trkpt lat="46.09553821666667" lon="9.341315333333334"><ele>1158.0</ele><time>2026-04-18T13:54:04.269Z</time></trkpt><trkpt lat="46.095555233333336" lon="9.3412264"><ele>1158.0</ele><time>2026-04-18T13:54:06.311Z</time></trkpt><trkpt lat="46.09554486262502" lon="9.341131415935237"><ele>1158.0</ele><time>2026-04-18T13:54:08.296Z</time></trkpt><trkpt lat="46.09543520978743" lon="9.341134681621412"><ele>1158.0</ele><time>2026-04-18T13:54:10.317Z</time></trkpt><trkpt lat="46.095372239276195" lon="9.341256791857687"><ele>1158.0</ele><time>2026-04-18T13:54:12.279Z</time></trkpt><trkpt lat="46.09532505195292" lon="9.341355717855123"><ele>1158.0</ele><time>2026-04-18T13:54:14.282Z</time></trkpt><trkpt lat="46.09527138886497" lon="9.341461289032265"><ele>1158.0</ele><time>2026-04-18T13:54:16.246Z</time></trkpt><trkpt lat="46.095209222236036" lon="9.341569229114146"><ele>1158.0</ele><time>2026-04-18T13:54:18.274Z</time></trkpt><trkpt lat="46.09513033862872" lon="9.341667996152665"><ele>1158.0</ele><time>2026-04-18T13:54:20.291Z</time></trkpt><trkpt lat="46.09502654337985" lon="9.341762412704817"><ele>1158.0</ele><time>2026-04-18T13:54:22.271Z</time></trkpt><trkpt lat="46.09492268964862" lon="9.341877477391968"><ele>1158.0</ele><time>2026-04-18T13:54:24.262Z</time></trkpt><trkpt lat="46.09487093522872" lon="9.342036170191376"><ele>1158.0</ele><time>2026-04-18T13:54:26.28Z</time></trkpt><trkpt lat="46.09486868215511" lon="9.342186742911379"><ele>1156.6666666666667</ele><time>2026-04-18T13:54:28.281Z</time></trkpt><trkpt lat="46.094934716666664" lon="9.342312616666668"><ele>1155.3333333333333</ele><time>2026-04-18T13:54:30.274Z</time></trkpt><trkpt lat="46.09499263333334" lon="9.342464916666668"><ele>1154.0</ele><time>2026-04-18T13:54:32.269Z</time></trkpt><trkpt lat="46.09501955" lon="9.342548233333334"><ele>1152.6666666666665</ele><time>2026-04-18T13:54:33.273Z</time></trkpt><trkpt lat="46.09507823135817" lon="9.342596028535809"><ele>1151.3333333333333</ele><time>2026-04-18T13:54:34.259Z</time></trkpt><trkpt lat="46.095128827149125" lon="9.342654853354516"><ele>1150.0</ele><time>2026-04-18T13:54:35.266Z</time></trkpt><trkpt lat="46.09518321252355" lon="9.342716938472686"><ele>1150.0</ele><time>2026-04-18T13:54:36.277Z</time></trkpt><trkpt lat="46.095239106069435" lon="9.342784363613367"><ele>1150.0</ele><time>2026-04-18T13:54:37.256Z</time></trkpt><trkpt lat="46.095294559641964" lon="9.342852786554179"><ele>1150.0</ele><time>2026-04-18T13:54:38.262Z</time></trkpt><trkpt lat="46.095348015698875" lon="9.342915917473402"><ele>1150.0</ele><time>2026-04-18T13:54:39.276Z</time></trkpt><trkpt lat="46.09544251190758" lon="9.342997036403073"><ele>1150.0</ele><time>2026-04-18T13:54:41.267Z</time></trkpt><trkpt lat="46.09553435123963" lon="9.343048436496618"><ele>1150.0</ele><time>2026-04-18T13:54:43.254Z</time></trkpt><trkpt lat="46.095574502009285" lon="9.343155030509992"><ele>1149.0</ele><time>2026-04-18T13:54:45.269Z</time></trkpt><trkpt lat="46.09551064440247" lon="9.343156141880185"><ele>1149.0</ele><time>2026-04-18T13:54:47.287Z</time></trkpt><trkpt lat="46.09551064440247" lon="9.343156141880185"><ele>1149.0</ele><time>2026-04-18T13:54:47.287Z</time></trkpt></trkseg></trk></gpx>